<?xml version="1.0" encoding="UTF-8" standalone="no" ?>
<gpx xmlns="http://www.topografix.com/GPX/1/1" xmlns:xsi="http://www.w3.org/2001/XMLSchema-instance" xsi:schemaLocation="http://www.topografix.com/GPX/1/1 http://www.topografix.com/GPX/1/1/gpx.xsd" version="1.1" creator="VisuGPX - https://www.visugpx.com">
  <metadata>
    <name>CARREFOUR DE LUYNES 2------------</name>
  </metadata>
  <trk>
    <name><![CDATA[CARREFOUR DE LUYNES 2------------]]></name>
    <trkseg>
      <trkpt lat="48.59184" lon="1.9661">
        <ele>121.26</ele>
        <time>2016-01-12T08:26:04Z</time>
      </trkpt>
      <trkpt lat="48.59184" lon="1.9661">
        <ele>120.78</ele>
        <time>2016-01-12T08:26:05Z</time>
      </trkpt>
      <trkpt lat="48.59184" lon="1.9661">
        <ele>120.3</ele>
        <time>2016-01-12T08:26:11Z</time>
      </trkpt>
      <trkpt lat="48.59184" lon="1.9661">
        <ele>120.3</ele>
        <time>2016-01-12T08:26:23Z</time>
      </trkpt>
      <trkpt lat="48.59184" lon="1.9661">
        <ele>119.82</ele>
        <time>2016-01-12T08:26:33Z</time>
      </trkpt>
      <trkpt lat="48.59184" lon="1.9661">
        <ele>120.3</ele>
        <time>2016-01-12T08:26:46Z</time>
      </trkpt>
      <trkpt lat="48.59184" lon="1.9661">
        <ele>120.3</ele>
        <time>2016-01-12T08:26:56Z</time>
      </trkpt>
      <trkpt lat="48.59184" lon="1.9661">
        <ele>120.78</ele>
        <time>2016-01-12T08:27:05Z</time>
      </trkpt>
      <trkpt lat="48.59184" lon="1.9661">
        <ele>120.3</ele>
        <time>2016-01-12T08:27:14Z</time>
      </trkpt>
      <trkpt lat="48.59184" lon="1.96611">
        <ele>120.3</ele>
        <time>2016-01-12T08:27:23Z</time>
      </trkpt>
      <trkpt lat="48.59185" lon="1.96609">
        <ele>120.3</ele>
        <time>2016-01-12T08:27:32Z</time>
      </trkpt>
      <trkpt lat="48.59184" lon="1.96611">
        <ele>120.78</ele>
        <time>2016-01-12T08:27:40Z</time>
      </trkpt>
      <trkpt lat="48.59184" lon="1.96611">
        <ele>120.78</ele>
        <time>2016-01-12T08:27:51Z</time>
      </trkpt>
      <trkpt lat="48.59184" lon="1.96612">
        <ele>120.78</ele>
        <time>2016-01-12T08:27:59Z</time>
      </trkpt>
      <trkpt lat="48.59183" lon="1.96612">
        <ele>121.26</ele>
        <time>2016-01-12T08:28:10Z</time>
      </trkpt>
      <trkpt lat="48.59183" lon="1.96613">
        <ele>116.94</ele>
        <time>2016-01-12T08:28:20Z</time>
      </trkpt>
      <trkpt lat="48.59182" lon="1.96612">
        <ele>123.67</ele>
        <time>2016-01-12T08:28:21Z</time>
      </trkpt>
      <trkpt lat="48.59181" lon="1.96611">
        <ele>120.3</ele>
        <time>2016-01-12T08:28:28Z</time>
      </trkpt>
      <trkpt lat="48.5918" lon="1.9661">
        <ele>119.82</ele>
        <time>2016-01-12T08:28:34Z</time>
      </trkpt>
      <trkpt lat="48.59179" lon="1.96596">
        <ele>120.3</ele>
        <time>2016-01-12T08:28:41Z</time>
      </trkpt>
      <trkpt lat="48.59181" lon="1.96586">
        <ele>120.78</ele>
        <time>2016-01-12T08:28:46Z</time>
      </trkpt>
      <trkpt lat="48.59179" lon="1.96576">
        <ele>120.3</ele>
        <time>2016-01-12T08:28:50Z</time>
      </trkpt>
      <trkpt lat="48.59181" lon="1.96569">
        <ele>120.3</ele>
        <time>2016-01-12T08:28:54Z</time>
      </trkpt>
      <trkpt lat="48.59187" lon="1.96564">
        <ele>121.26</ele>
        <time>2016-01-12T08:29:00Z</time>
      </trkpt>
      <trkpt lat="48.59195" lon="1.96559">
        <ele>120.78</ele>
        <time>2016-01-12T08:29:07Z</time>
      </trkpt>
      <trkpt lat="48.59202" lon="1.9655">
        <ele>120.78</ele>
        <time>2016-01-12T08:29:16Z</time>
      </trkpt>
      <trkpt lat="48.59203" lon="1.96549">
        <ele>121.26</ele>
        <time>2016-01-12T08:29:18Z</time>
      </trkpt>
      <trkpt lat="48.59207" lon="1.96547">
        <ele>120.78</ele>
        <time>2016-01-12T08:29:23Z</time>
      </trkpt>
      <trkpt lat="48.59212" lon="1.96541">
        <ele>121.74</ele>
        <time>2016-01-12T08:29:31Z</time>
      </trkpt>
      <trkpt lat="48.59215" lon="1.96538">
        <ele>121.74</ele>
        <time>2016-01-12T08:29:35Z</time>
      </trkpt>
      <trkpt lat="48.59226" lon="1.96527">
        <ele>122.71</ele>
        <time>2016-01-12T08:29:43Z</time>
      </trkpt>
      <trkpt lat="48.59235" lon="1.9652">
        <ele>124.15</ele>
        <time>2016-01-12T08:29:51Z</time>
      </trkpt>
      <trkpt lat="48.59242" lon="1.96515">
        <ele>124.63</ele>
        <time>2016-01-12T08:29:58Z</time>
      </trkpt>
      <trkpt lat="48.59248" lon="1.96511">
        <ele>125.11</ele>
        <time>2016-01-12T08:30:04Z</time>
      </trkpt>
      <trkpt lat="48.59252" lon="1.96507">
        <ele>125.59</ele>
        <time>2016-01-12T08:30:09Z</time>
      </trkpt>
      <trkpt lat="48.5926" lon="1.96497">
        <ele>126.07</ele>
        <time>2016-01-12T08:30:17Z</time>
      </trkpt>
      <trkpt lat="48.59262" lon="1.96496">
        <ele>127.03</ele>
        <time>2016-01-12T08:30:18Z</time>
      </trkpt>
      <trkpt lat="48.59266" lon="1.96489">
        <ele>126.55</ele>
        <time>2016-01-12T08:30:23Z</time>
      </trkpt>
      <trkpt lat="48.59274" lon="1.96481">
        <ele>127.99</ele>
        <time>2016-01-12T08:30:31Z</time>
      </trkpt>
      <trkpt lat="48.59277" lon="1.96481">
        <ele>127.99</ele>
        <time>2016-01-12T08:30:35Z</time>
      </trkpt>
      <trkpt lat="48.59285" lon="1.96482">
        <ele>129.43</ele>
        <time>2016-01-12T08:30:40Z</time>
      </trkpt>
      <trkpt lat="48.5929" lon="1.96482">
        <ele>130.4</ele>
        <time>2016-01-12T08:30:47Z</time>
      </trkpt>
      <trkpt lat="48.59291" lon="1.96482">
        <ele>129.92</ele>
        <time>2016-01-12T08:30:55Z</time>
      </trkpt>
      <trkpt lat="48.59291" lon="1.96482">
        <ele>130.4</ele>
        <time>2016-01-12T08:30:56Z</time>
      </trkpt>
      <trkpt lat="48.59295" lon="1.96484">
        <ele>131.36</ele>
        <time>2016-01-12T08:31:00Z</time>
      </trkpt>
      <trkpt lat="48.59299" lon="1.96486">
        <ele>132.32</ele>
        <time>2016-01-12T08:31:04Z</time>
      </trkpt>
      <trkpt lat="48.59309" lon="1.96492">
        <ele>133.76</ele>
        <time>2016-01-12T08:31:12Z</time>
      </trkpt>
      <trkpt lat="48.59314" lon="1.96495">
        <ele>133.76</ele>
        <time>2016-01-12T08:31:15Z</time>
      </trkpt>
      <trkpt lat="48.59321" lon="1.96499">
        <ele>134.24</ele>
        <time>2016-01-12T08:31:20Z</time>
      </trkpt>
      <trkpt lat="48.59336" lon="1.96509">
        <ele>133.76</ele>
        <time>2016-01-12T08:31:30Z</time>
      </trkpt>
      <trkpt lat="48.59339" lon="1.96513">
        <ele>134.24</ele>
        <time>2016-01-12T08:31:33Z</time>
      </trkpt>
      <trkpt lat="48.59343" lon="1.96519">
        <ele>134.72</ele>
        <time>2016-01-12T08:31:37Z</time>
      </trkpt>
      <trkpt lat="48.59352" lon="1.96528">
        <ele>135.2</ele>
        <time>2016-01-12T08:31:45Z</time>
      </trkpt>
      <trkpt lat="48.59359" lon="1.96535">
        <ele>135.68</ele>
        <time>2016-01-12T08:31:50Z</time>
      </trkpt>
      <trkpt lat="48.59369" lon="1.96544">
        <ele>136.64</ele>
        <time>2016-01-12T08:31:59Z</time>
      </trkpt>
      <trkpt lat="48.59377" lon="1.96555">
        <ele>138.09</ele>
        <time>2016-01-12T08:32:07Z</time>
      </trkpt>
      <trkpt lat="48.59378" lon="1.96556">
        <ele>139.05</ele>
        <time>2016-01-12T08:32:08Z</time>
      </trkpt>
      <trkpt lat="48.59386" lon="1.96565">
        <ele>139.05</ele>
        <time>2016-01-12T08:32:15Z</time>
      </trkpt>
      <trkpt lat="48.59388" lon="1.96571">
        <ele>139.53</ele>
        <time>2016-01-12T08:32:19Z</time>
      </trkpt>
      <trkpt lat="48.594" lon="1.96576">
        <ele>140.97</ele>
        <time>2016-01-12T08:32:27Z</time>
      </trkpt>
      <trkpt lat="48.59404" lon="1.96578">
        <ele>142.41</ele>
        <time>2016-01-12T08:32:30Z</time>
      </trkpt>
      <trkpt lat="48.59414" lon="1.9659">
        <ele>142.89</ele>
        <time>2016-01-12T08:32:39Z</time>
      </trkpt>
      <trkpt lat="48.59425" lon="1.96599">
        <ele>143.85</ele>
        <time>2016-01-12T08:32:48Z</time>
      </trkpt>
      <trkpt lat="48.59432" lon="1.96611">
        <ele>144.34</ele>
        <time>2016-01-12T08:32:55Z</time>
      </trkpt>
      <trkpt lat="48.59435" lon="1.96622">
        <ele>145.3</ele>
        <time>2016-01-12T08:33:01Z</time>
      </trkpt>
      <trkpt lat="48.59429" lon="1.96634">
        <ele>144.82</ele>
        <time>2016-01-12T08:33:08Z</time>
      </trkpt>
      <trkpt lat="48.59423" lon="1.96647">
        <ele>145.3</ele>
        <time>2016-01-12T08:33:16Z</time>
      </trkpt>
      <trkpt lat="48.59413" lon="1.96662">
        <ele>144.82</ele>
        <time>2016-01-12T08:33:23Z</time>
      </trkpt>
      <trkpt lat="48.59407" lon="1.96672">
        <ele>145.3</ele>
        <time>2016-01-12T08:33:30Z</time>
      </trkpt>
      <trkpt lat="48.59407" lon="1.96674">
        <ele>145.3</ele>
        <time>2016-01-12T08:33:31Z</time>
      </trkpt>
      <trkpt lat="48.59404" lon="1.96684">
        <ele>145.3</ele>
        <time>2016-01-12T08:33:36Z</time>
      </trkpt>
      <trkpt lat="48.594" lon="1.96693">
        <ele>145.3</ele>
        <time>2016-01-12T08:33:40Z</time>
      </trkpt>
      <trkpt lat="48.59392" lon="1.96703">
        <ele>144.82</ele>
        <time>2016-01-12T08:33:46Z</time>
      </trkpt>
      <trkpt lat="48.59389" lon="1.96706">
        <ele>145.78</ele>
        <time>2016-01-12T08:33:49Z</time>
      </trkpt>
      <trkpt lat="48.59383" lon="1.96717">
        <ele>145.78</ele>
        <time>2016-01-12T08:33:57Z</time>
      </trkpt>
      <trkpt lat="48.59382" lon="1.96722">
        <ele>145.3</ele>
        <time>2016-01-12T08:34:00Z</time>
      </trkpt>
      <trkpt lat="48.59377" lon="1.9674">
        <ele>146.74</ele>
        <time>2016-01-12T08:34:08Z</time>
      </trkpt>
      <trkpt lat="48.59373" lon="1.96752">
        <ele>146.74</ele>
        <time>2016-01-12T08:34:15Z</time>
      </trkpt>
      <trkpt lat="48.59369" lon="1.96762">
        <ele>146.26</ele>
        <time>2016-01-12T08:34:20Z</time>
      </trkpt>
      <trkpt lat="48.59366" lon="1.9677">
        <ele>146.26</ele>
        <time>2016-01-12T08:34:23Z</time>
      </trkpt>
      <trkpt lat="48.59359" lon="1.96783">
        <ele>145.78</ele>
        <time>2016-01-12T08:34:31Z</time>
      </trkpt>
      <trkpt lat="48.59358" lon="1.96785">
        <ele>146.26</ele>
        <time>2016-01-12T08:34:33Z</time>
      </trkpt>
      <trkpt lat="48.59352" lon="1.96796">
        <ele>145.3</ele>
        <time>2016-01-12T08:34:40Z</time>
      </trkpt>
      <trkpt lat="48.59351" lon="1.96799">
        <ele>144.82</ele>
        <time>2016-01-12T08:34:42Z</time>
      </trkpt>
      <trkpt lat="48.59348" lon="1.9681">
        <ele>143.37</ele>
        <time>2016-01-12T08:34:50Z</time>
      </trkpt>
      <trkpt lat="48.59339" lon="1.96827">
        <ele>141.45</ele>
        <time>2016-01-12T08:34:57Z</time>
      </trkpt>
      <trkpt lat="48.59335" lon="1.96836">
        <ele>140.01</ele>
        <time>2016-01-12T08:35:06Z</time>
      </trkpt>
      <trkpt lat="48.59335" lon="1.96837">
        <ele>140.01</ele>
        <time>2016-01-12T08:35:07Z</time>
      </trkpt>
      <trkpt lat="48.59333" lon="1.9684">
        <ele>140.01</ele>
        <time>2016-01-12T08:35:09Z</time>
      </trkpt>
      <trkpt lat="48.59329" lon="1.96848">
        <ele>139.05</ele>
        <time>2016-01-12T08:35:14Z</time>
      </trkpt>
      <trkpt lat="48.59322" lon="1.96862">
        <ele>137.13</ele>
        <time>2016-01-12T08:35:22Z</time>
      </trkpt>
      <trkpt lat="48.59316" lon="1.96872">
        <ele>134.72</ele>
        <time>2016-01-12T08:35:30Z</time>
      </trkpt>
      <trkpt lat="48.59314" lon="1.96876">
        <ele>133.76</ele>
        <time>2016-01-12T08:35:35Z</time>
      </trkpt>
      <trkpt lat="48.59309" lon="1.96885">
        <ele>132.32</ele>
        <time>2016-01-12T08:35:40Z</time>
      </trkpt>
      <trkpt lat="48.59303" lon="1.96897">
        <ele>131.36</ele>
        <time>2016-01-12T08:35:45Z</time>
      </trkpt>
      <trkpt lat="48.59298" lon="1.96909">
        <ele>130.4</ele>
        <time>2016-01-12T08:35:53Z</time>
      </trkpt>
      <trkpt lat="48.59293" lon="1.9692">
        <ele>128.95</ele>
        <time>2016-01-12T08:36:01Z</time>
      </trkpt>
      <trkpt lat="48.59286" lon="1.9694">
        <ele>127.51</ele>
        <time>2016-01-12T08:36:09Z</time>
      </trkpt>
      <trkpt lat="48.59274" lon="1.96969">
        <ele>126.55</ele>
        <time>2016-01-12T08:36:17Z</time>
      </trkpt>
      <trkpt lat="48.59268" lon="1.96981">
        <ele>125.11</ele>
        <time>2016-01-12T08:36:25Z</time>
      </trkpt>
      <trkpt lat="48.59268" lon="1.96983">
        <ele>124.63</ele>
        <time>2016-01-12T08:36:26Z</time>
      </trkpt>
      <trkpt lat="48.59266" lon="1.96987">
        <ele>124.15</ele>
        <time>2016-01-12T08:36:29Z</time>
      </trkpt>
      <trkpt lat="48.59259" lon="1.97004">
        <ele>123.19</ele>
        <time>2016-01-12T08:36:39Z</time>
      </trkpt>
      <trkpt lat="48.59256" lon="1.97011">
        <ele>122.71</ele>
        <time>2016-01-12T08:36:43Z</time>
      </trkpt>
      <trkpt lat="48.59251" lon="1.97025">
        <ele>122.71</ele>
        <time>2016-01-12T08:36:50Z</time>
      </trkpt>
      <trkpt lat="48.59241" lon="1.97035">
        <ele>122.71</ele>
        <time>2016-01-12T08:36:58Z</time>
      </trkpt>
      <trkpt lat="48.59239" lon="1.97042">
        <ele>123.19</ele>
        <time>2016-01-12T08:37:02Z</time>
      </trkpt>
      <trkpt lat="48.59232" lon="1.97057">
        <ele>122.71</ele>
        <time>2016-01-12T08:37:10Z</time>
      </trkpt>
      <trkpt lat="48.59232" lon="1.97059">
        <ele>122.71</ele>
        <time>2016-01-12T08:37:11Z</time>
      </trkpt>
      <trkpt lat="48.59226" lon="1.97071">
        <ele>122.22</ele>
        <time>2016-01-12T08:37:19Z</time>
      </trkpt>
      <trkpt lat="48.59224" lon="1.97074">
        <ele>122.71</ele>
        <time>2016-01-12T08:37:21Z</time>
      </trkpt>
      <trkpt lat="48.59221" lon="1.97079">
        <ele>121.74</ele>
        <time>2016-01-12T08:37:25Z</time>
      </trkpt>
      <trkpt lat="48.59215" lon="1.97093">
        <ele>122.22</ele>
        <time>2016-01-12T08:37:34Z</time>
      </trkpt>
      <trkpt lat="48.59209" lon="1.9711">
        <ele>121.26</ele>
        <time>2016-01-12T08:37:42Z</time>
      </trkpt>
      <trkpt lat="48.59201" lon="1.97122">
        <ele>121.26</ele>
        <time>2016-01-12T08:37:51Z</time>
      </trkpt>
      <trkpt lat="48.59197" lon="1.97129">
        <ele>121.26</ele>
        <time>2016-01-12T08:37:57Z</time>
      </trkpt>
      <trkpt lat="48.59196" lon="1.97134">
        <ele>121.26</ele>
        <time>2016-01-12T08:38:00Z</time>
      </trkpt>
      <trkpt lat="48.5919" lon="1.97147">
        <ele>120.78</ele>
        <time>2016-01-12T08:38:09Z</time>
      </trkpt>
      <trkpt lat="48.59185" lon="1.97154">
        <ele>119.82</ele>
        <time>2016-01-12T08:38:17Z</time>
      </trkpt>
      <trkpt lat="48.5918" lon="1.97171">
        <ele>118.86</ele>
        <time>2016-01-12T08:38:25Z</time>
      </trkpt>
      <trkpt lat="48.59179" lon="1.97173">
        <ele>118.38</ele>
        <time>2016-01-12T08:38:26Z</time>
      </trkpt>
      <trkpt lat="48.59173" lon="1.97186">
        <ele>117.9</ele>
        <time>2016-01-12T08:38:35Z</time>
      </trkpt>
      <trkpt lat="48.59172" lon="1.97188">
        <ele>117.9</ele>
        <time>2016-01-12T08:38:37Z</time>
      </trkpt>
      <trkpt lat="48.59171" lon="1.97189">
        <ele>117.42</ele>
        <time>2016-01-12T08:38:39Z</time>
      </trkpt>
      <trkpt lat="48.59163" lon="1.97207">
        <ele>117.42</ele>
        <time>2016-01-12T08:38:47Z</time>
      </trkpt>
      <trkpt lat="48.59159" lon="1.97214">
        <ele>116.46</ele>
        <time>2016-01-12T08:38:54Z</time>
      </trkpt>
      <trkpt lat="48.59155" lon="1.97225">
        <ele>116.94</ele>
        <time>2016-01-12T08:39:01Z</time>
      </trkpt>
      <trkpt lat="48.59145" lon="1.97255">
        <ele>116.46</ele>
        <time>2016-01-12T08:39:11Z</time>
      </trkpt>
      <trkpt lat="48.59143" lon="1.97256">
        <ele>116.46</ele>
        <time>2016-01-12T08:39:12Z</time>
      </trkpt>
      <trkpt lat="48.59138" lon="1.97263">
        <ele>116.46</ele>
        <time>2016-01-12T08:39:20Z</time>
      </trkpt>
      <trkpt lat="48.59137" lon="1.97267">
        <ele>116.46</ele>
        <time>2016-01-12T08:39:22Z</time>
      </trkpt>
      <trkpt lat="48.59131" lon="1.97283">
        <ele>116.46</ele>
        <time>2016-01-12T08:39:31Z</time>
      </trkpt>
      <trkpt lat="48.59125" lon="1.97297">
        <ele>115.98</ele>
        <time>2016-01-12T08:39:38Z</time>
      </trkpt>
      <trkpt lat="48.5912" lon="1.97305">
        <ele>115.5</ele>
        <time>2016-01-12T08:39:46Z</time>
      </trkpt>
      <trkpt lat="48.59114" lon="1.97321">
        <ele>115.5</ele>
        <time>2016-01-12T08:39:55Z</time>
      </trkpt>
      <trkpt lat="48.59113" lon="1.97324">
        <ele>115.5</ele>
        <time>2016-01-12T08:39:56Z</time>
      </trkpt>
      <trkpt lat="48.5912" lon="1.97337">
        <ele>115.98</ele>
        <time>2016-01-12T08:40:05Z</time>
      </trkpt>
      <trkpt lat="48.59132" lon="1.97344">
        <ele>115.98</ele>
        <time>2016-01-12T08:40:14Z</time>
      </trkpt>
      <trkpt lat="48.59142" lon="1.9735">
        <ele>116.46</ele>
        <time>2016-01-12T08:40:22Z</time>
      </trkpt>
      <trkpt lat="48.5915" lon="1.97359">
        <ele>116.94</ele>
        <time>2016-01-12T08:40:32Z</time>
      </trkpt>
      <trkpt lat="48.59152" lon="1.97362">
        <ele>116.94</ele>
        <time>2016-01-12T08:40:37Z</time>
      </trkpt>
      <trkpt lat="48.59154" lon="1.97365">
        <ele>116.94</ele>
        <time>2016-01-12T08:40:39Z</time>
      </trkpt>
      <trkpt lat="48.59161" lon="1.97374">
        <ele>117.9</ele>
        <time>2016-01-12T08:40:48Z</time>
      </trkpt>
      <trkpt lat="48.59167" lon="1.97381">
        <ele>118.38</ele>
        <time>2016-01-12T08:40:55Z</time>
      </trkpt>
      <trkpt lat="48.59173" lon="1.97389">
        <ele>119.34</ele>
        <time>2016-01-12T08:41:01Z</time>
      </trkpt>
      <trkpt lat="48.59183" lon="1.97395">
        <ele>119.34</ele>
        <time>2016-01-12T08:41:09Z</time>
      </trkpt>
      <trkpt lat="48.59194" lon="1.97401">
        <ele>119.82</ele>
        <time>2016-01-12T08:41:15Z</time>
      </trkpt>
      <trkpt lat="48.59209" lon="1.97409">
        <ele>120.3</ele>
        <time>2016-01-12T08:41:23Z</time>
      </trkpt>
      <trkpt lat="48.5922" lon="1.97416">
        <ele>120.3</ele>
        <time>2016-01-12T08:41:31Z</time>
      </trkpt>
      <trkpt lat="48.59223" lon="1.97417">
        <ele>121.26</ele>
        <time>2016-01-12T08:41:33Z</time>
      </trkpt>
      <trkpt lat="48.59236" lon="1.97424">
        <ele>122.71</ele>
        <time>2016-01-12T08:41:42Z</time>
      </trkpt>
      <trkpt lat="48.59245" lon="1.97429">
        <ele>123.19</ele>
        <time>2016-01-12T08:41:51Z</time>
      </trkpt>
      <trkpt lat="48.59257" lon="1.97427">
        <ele>123.19</ele>
        <time>2016-01-12T08:41:59Z</time>
      </trkpt>
      <trkpt lat="48.59261" lon="1.97426">
        <ele>123.67</ele>
        <time>2016-01-12T08:42:03Z</time>
      </trkpt>
      <trkpt lat="48.59274" lon="1.97422">
        <ele>124.15</ele>
        <time>2016-01-12T08:42:12Z</time>
      </trkpt>
      <trkpt lat="48.59286" lon="1.97423">
        <ele>124.63</ele>
        <time>2016-01-12T08:42:20Z</time>
      </trkpt>
      <trkpt lat="48.59289" lon="1.97422">
        <ele>126.07</ele>
        <time>2016-01-12T08:42:23Z</time>
      </trkpt>
      <trkpt lat="48.59304" lon="1.9742">
        <ele>126.55</ele>
        <time>2016-01-12T08:42:32Z</time>
      </trkpt>
      <trkpt lat="48.59311" lon="1.9742">
        <ele>127.51</ele>
        <time>2016-01-12T08:42:39Z</time>
      </trkpt>
      <trkpt lat="48.59318" lon="1.97419">
        <ele>128.47</ele>
        <time>2016-01-12T08:42:47Z</time>
      </trkpt>
      <trkpt lat="48.59325" lon="1.97419">
        <ele>128.95</ele>
        <time>2016-01-12T08:42:55Z</time>
      </trkpt>
      <trkpt lat="48.59334" lon="1.97419">
        <ele>130.4</ele>
        <time>2016-01-12T08:43:04Z</time>
      </trkpt>
      <trkpt lat="48.59335" lon="1.9742">
        <ele>129.92</ele>
        <time>2016-01-12T08:43:06Z</time>
      </trkpt>
      <trkpt lat="48.59349" lon="1.97422">
        <ele>130.88</ele>
        <time>2016-01-12T08:43:14Z</time>
      </trkpt>
      <trkpt lat="48.5937" lon="1.97424">
        <ele>131.84</ele>
        <time>2016-01-12T08:43:24Z</time>
      </trkpt>
      <trkpt lat="48.59377" lon="1.97425">
        <ele>132.32</ele>
        <time>2016-01-12T08:43:31Z</time>
      </trkpt>
      <trkpt lat="48.59381" lon="1.97421">
        <ele>132.32</ele>
        <time>2016-01-12T08:43:38Z</time>
      </trkpt>
      <trkpt lat="48.59389" lon="1.9742">
        <ele>133.76</ele>
        <time>2016-01-12T08:43:45Z</time>
      </trkpt>
      <trkpt lat="48.59395" lon="1.97421">
        <ele>133.28</ele>
        <time>2016-01-12T08:43:48Z</time>
      </trkpt>
      <trkpt lat="48.59411" lon="1.97426">
        <ele>133.76</ele>
        <time>2016-01-12T08:43:56Z</time>
      </trkpt>
      <trkpt lat="48.59422" lon="1.97428">
        <ele>134.24</ele>
        <time>2016-01-12T08:44:03Z</time>
      </trkpt>
      <trkpt lat="48.59431" lon="1.97428">
        <ele>135.2</ele>
        <time>2016-01-12T08:44:10Z</time>
      </trkpt>
      <trkpt lat="48.5944" lon="1.97427">
        <ele>136.64</ele>
        <time>2016-01-12T08:44:18Z</time>
      </trkpt>
      <trkpt lat="48.59441" lon="1.97427">
        <ele>136.64</ele>
        <time>2016-01-12T08:44:19Z</time>
      </trkpt>
      <trkpt lat="48.59454" lon="1.97429">
        <ele>137.13</ele>
        <time>2016-01-12T08:44:28Z</time>
      </trkpt>
      <trkpt lat="48.59465" lon="1.97432">
        <ele>137.61</ele>
        <time>2016-01-12T08:44:37Z</time>
      </trkpt>
      <trkpt lat="48.59466" lon="1.97432">
        <ele>138.09</ele>
        <time>2016-01-12T08:44:38Z</time>
      </trkpt>
      <trkpt lat="48.59472" lon="1.97435">
        <ele>138.09</ele>
        <time>2016-01-12T08:44:46Z</time>
      </trkpt>
      <trkpt lat="48.59473" lon="1.97436">
        <ele>138.57</ele>
        <time>2016-01-12T08:44:53Z</time>
      </trkpt>
      <trkpt lat="48.59474" lon="1.97435">
        <ele>138.09</ele>
        <time>2016-01-12T08:45:03Z</time>
      </trkpt>
      <trkpt lat="48.59474" lon="1.97435">
        <ele>138.09</ele>
        <time>2016-01-12T08:45:15Z</time>
      </trkpt>
      <trkpt lat="48.59473" lon="1.97434">
        <ele>138.57</ele>
        <time>2016-01-12T08:45:24Z</time>
      </trkpt>
      <trkpt lat="48.59473" lon="1.97434">
        <ele>137.13</ele>
        <time>2016-01-12T08:45:27Z</time>
      </trkpt>
      <trkpt lat="48.59475" lon="1.97441">
        <ele>137.61</ele>
        <time>2016-01-12T08:45:34Z</time>
      </trkpt>
      <trkpt lat="48.59476" lon="1.97447">
        <ele>138.09</ele>
        <time>2016-01-12T08:45:39Z</time>
      </trkpt>
      <trkpt lat="48.59474" lon="1.97455">
        <ele>138.57</ele>
        <time>2016-01-12T08:45:43Z</time>
      </trkpt>
      <trkpt lat="48.59474" lon="1.97463">
        <ele>139.05</ele>
        <time>2016-01-12T08:45:47Z</time>
      </trkpt>
      <trkpt lat="48.59475" lon="1.97472">
        <ele>139.05</ele>
        <time>2016-01-12T08:45:51Z</time>
      </trkpt>
      <trkpt lat="48.59475" lon="1.97476">
        <ele>140.01</ele>
        <time>2016-01-12T08:45:53Z</time>
      </trkpt>
      <trkpt lat="48.59478" lon="1.97492">
        <ele>139.53</ele>
        <time>2016-01-12T08:46:01Z</time>
      </trkpt>
      <trkpt lat="48.59481" lon="1.97504">
        <ele>140.01</ele>
        <time>2016-01-12T08:46:07Z</time>
      </trkpt>
      <trkpt lat="48.59481" lon="1.97512">
        <ele>140.97</ele>
        <time>2016-01-12T08:46:11Z</time>
      </trkpt>
      <trkpt lat="48.59476" lon="1.97521">
        <ele>141.45</ele>
        <time>2016-01-12T08:46:18Z</time>
      </trkpt>
      <trkpt lat="48.59475" lon="1.97523">
        <ele>141.45</ele>
        <time>2016-01-12T08:46:19Z</time>
      </trkpt>
      <trkpt lat="48.59468" lon="1.97536">
        <ele>142.41</ele>
        <time>2016-01-12T08:46:27Z</time>
      </trkpt>
      <trkpt lat="48.59457" lon="1.97547">
        <ele>143.37</ele>
        <time>2016-01-12T08:46:35Z</time>
      </trkpt>
      <trkpt lat="48.59457" lon="1.97547">
        <ele>142.89</ele>
        <time>2016-01-12T08:46:36Z</time>
      </trkpt>
      <trkpt lat="48.59456" lon="1.97552">
        <ele>143.37</ele>
        <time>2016-01-12T08:46:38Z</time>
      </trkpt>
      <trkpt lat="48.59451" lon="1.97563">
        <ele>143.85</ele>
        <time>2016-01-12T08:46:44Z</time>
      </trkpt>
      <trkpt lat="48.59445" lon="1.97577">
        <ele>144.34</ele>
        <time>2016-01-12T08:46:52Z</time>
      </trkpt>
      <trkpt lat="48.59443" lon="1.97586">
        <ele>144.34</ele>
        <time>2016-01-12T08:46:57Z</time>
      </trkpt>
      <trkpt lat="48.59439" lon="1.97598">
        <ele>146.26</ele>
        <time>2016-01-12T08:47:05Z</time>
      </trkpt>
      <trkpt lat="48.59437" lon="1.97608">
        <ele>147.22</ele>
        <time>2016-01-12T08:47:11Z</time>
      </trkpt>
      <trkpt lat="48.59437" lon="1.97612">
        <ele>146.74</ele>
        <time>2016-01-12T08:47:13Z</time>
      </trkpt>
      <trkpt lat="48.59435" lon="1.97628">
        <ele>147.22</ele>
        <time>2016-01-12T08:47:21Z</time>
      </trkpt>
      <trkpt lat="48.59432" lon="1.97635">
        <ele>149.14</ele>
        <time>2016-01-12T08:47:26Z</time>
      </trkpt>
      <trkpt lat="48.59431" lon="1.97647">
        <ele>149.62</ele>
        <time>2016-01-12T08:47:33Z</time>
      </trkpt>
      <trkpt lat="48.59433" lon="1.97656">
        <ele>150.58</ele>
        <time>2016-01-12T08:47:38Z</time>
      </trkpt>
      <trkpt lat="48.59435" lon="1.97669">
        <ele>151.06</ele>
        <time>2016-01-12T08:47:45Z</time>
      </trkpt>
      <trkpt lat="48.59435" lon="1.97676">
        <ele>152.03</ele>
        <time>2016-01-12T08:47:48Z</time>
      </trkpt>
      <trkpt lat="48.59434" lon="1.97686">
        <ele>152.51</ele>
        <time>2016-01-12T08:47:54Z</time>
      </trkpt>
      <trkpt lat="48.59435" lon="1.97698">
        <ele>152.99</ele>
        <time>2016-01-12T08:48:00Z</time>
      </trkpt>
      <trkpt lat="48.59441" lon="1.97717">
        <ele>154.91</ele>
        <time>2016-01-12T08:48:09Z</time>
      </trkpt>
      <trkpt lat="48.59442" lon="1.97722">
        <ele>154.91</ele>
        <time>2016-01-12T08:48:13Z</time>
      </trkpt>
      <trkpt lat="48.59447" lon="1.97738">
        <ele>155.87</ele>
        <time>2016-01-12T08:48:22Z</time>
      </trkpt>
      <trkpt lat="48.59447" lon="1.97753">
        <ele>156.35</ele>
        <time>2016-01-12T08:48:30Z</time>
      </trkpt>
      <trkpt lat="48.59449" lon="1.97762">
        <ele>157.31</ele>
        <time>2016-01-12T08:48:36Z</time>
      </trkpt>
      <trkpt lat="48.59449" lon="1.97764">
        <ele>157.31</ele>
        <time>2016-01-12T08:48:38Z</time>
      </trkpt>
      <trkpt lat="48.59454" lon="1.9778">
        <ele>157.79</ele>
        <time>2016-01-12T08:48:46Z</time>
      </trkpt>
      <trkpt lat="48.59456" lon="1.97791">
        <ele>158.27</ele>
        <time>2016-01-12T08:48:51Z</time>
      </trkpt>
      <trkpt lat="48.59458" lon="1.97794">
        <ele>157.79</ele>
        <time>2016-01-12T08:48:53Z</time>
      </trkpt>
      <trkpt lat="48.59461" lon="1.97804">
        <ele>157.79</ele>
        <time>2016-01-12T08:48:59Z</time>
      </trkpt>
      <trkpt lat="48.59461" lon="1.97807">
        <ele>158.27</ele>
        <time>2016-01-12T08:49:02Z</time>
      </trkpt>
      <trkpt lat="48.59464" lon="1.97819">
        <ele>159.24</ele>
        <time>2016-01-12T08:49:09Z</time>
      </trkpt>
      <trkpt lat="48.59469" lon="1.97829">
        <ele>158.75</ele>
        <time>2016-01-12T08:49:14Z</time>
      </trkpt>
      <trkpt lat="48.59474" lon="1.97836">
        <ele>158.75</ele>
        <time>2016-01-12T08:49:19Z</time>
      </trkpt>
      <trkpt lat="48.5948" lon="1.97853">
        <ele>158.27</ele>
        <time>2016-01-12T08:49:27Z</time>
      </trkpt>
      <trkpt lat="48.59483" lon="1.97857">
        <ele>158.27</ele>
        <time>2016-01-12T08:49:30Z</time>
      </trkpt>
      <trkpt lat="48.59486" lon="1.97872">
        <ele>158.75</ele>
        <time>2016-01-12T08:49:38Z</time>
      </trkpt>
      <trkpt lat="48.59491" lon="1.97887">
        <ele>158.27</ele>
        <time>2016-01-12T08:49:45Z</time>
      </trkpt>
      <trkpt lat="48.59497" lon="1.97899">
        <ele>158.27</ele>
        <time>2016-01-12T08:49:52Z</time>
      </trkpt>
      <trkpt lat="48.59502" lon="1.97911">
        <ele>158.27</ele>
        <time>2016-01-12T08:49:59Z</time>
      </trkpt>
      <trkpt lat="48.59505" lon="1.97921">
        <ele>157.79</ele>
        <time>2016-01-12T08:50:05Z</time>
      </trkpt>
      <trkpt lat="48.5951" lon="1.97936">
        <ele>157.31</ele>
        <time>2016-01-12T08:50:12Z</time>
      </trkpt>
      <trkpt lat="48.59513" lon="1.97949">
        <ele>157.31</ele>
        <time>2016-01-12T08:50:19Z</time>
      </trkpt>
      <trkpt lat="48.59515" lon="1.97957">
        <ele>157.79</ele>
        <time>2016-01-12T08:50:24Z</time>
      </trkpt>
      <trkpt lat="48.59518" lon="1.97971">
        <ele>157.31</ele>
        <time>2016-01-12T08:50:31Z</time>
      </trkpt>
      <trkpt lat="48.59522" lon="1.97986">
        <ele>157.79</ele>
        <time>2016-01-12T08:50:39Z</time>
      </trkpt>
      <trkpt lat="48.59522" lon="1.97993">
        <ele>157.31</ele>
        <time>2016-01-12T08:50:46Z</time>
      </trkpt>
      <trkpt lat="48.59524" lon="1.97996">
        <ele>156.83</ele>
        <time>2016-01-12T08:50:53Z</time>
      </trkpt>
      <trkpt lat="48.5952" lon="1.97996">
        <ele>156.83</ele>
        <time>2016-01-12T08:51:05Z</time>
      </trkpt>
      <trkpt lat="48.59522" lon="1.97997">
        <ele>157.31</ele>
        <time>2016-01-12T08:51:14Z</time>
      </trkpt>
      <trkpt lat="48.59525" lon="1.98001">
        <ele>156.35</ele>
        <time>2016-01-12T08:51:21Z</time>
      </trkpt>
      <trkpt lat="48.59531" lon="1.98009">
        <ele>156.35</ele>
        <time>2016-01-12T08:51:28Z</time>
      </trkpt>
      <trkpt lat="48.59542" lon="1.98019">
        <ele>155.87</ele>
        <time>2016-01-12T08:51:37Z</time>
      </trkpt>
      <trkpt lat="48.59555" lon="1.98026">
        <ele>155.39</ele>
        <time>2016-01-12T08:51:45Z</time>
      </trkpt>
      <trkpt lat="48.59567" lon="1.98033">
        <ele>154.91</ele>
        <time>2016-01-12T08:51:55Z</time>
      </trkpt>
      <trkpt lat="48.59579" lon="1.98036">
        <ele>154.43</ele>
        <time>2016-01-12T08:52:04Z</time>
      </trkpt>
      <trkpt lat="48.59589" lon="1.98041">
        <ele>153.47</ele>
        <time>2016-01-12T08:52:12Z</time>
      </trkpt>
      <trkpt lat="48.59595" lon="1.9805">
        <ele>152.51</ele>
        <time>2016-01-12T08:52:17Z</time>
      </trkpt>
      <trkpt lat="48.59601" lon="1.98059">
        <ele>152.03</ele>
        <time>2016-01-12T08:52:24Z</time>
      </trkpt>
      <trkpt lat="48.59617" lon="1.98075">
        <ele>151.06</ele>
        <time>2016-01-12T08:52:34Z</time>
      </trkpt>
      <trkpt lat="48.59626" lon="1.98087">
        <ele>150.58</ele>
        <time>2016-01-12T08:52:43Z</time>
      </trkpt>
      <trkpt lat="48.59632" lon="1.98098">
        <ele>150.58</ele>
        <time>2016-01-12T08:52:50Z</time>
      </trkpt>
      <trkpt lat="48.59636" lon="1.98105">
        <ele>150.58</ele>
        <time>2016-01-12T08:52:55Z</time>
      </trkpt>
      <trkpt lat="48.59639" lon="1.98115">
        <ele>150.58</ele>
        <time>2016-01-12T08:53:03Z</time>
      </trkpt>
      <trkpt lat="48.59641" lon="1.98117">
        <ele>150.1</ele>
        <time>2016-01-12T08:53:05Z</time>
      </trkpt>
      <trkpt lat="48.59654" lon="1.98127">
        <ele>149.62</ele>
        <time>2016-01-12T08:53:14Z</time>
      </trkpt>
      <trkpt lat="48.59663" lon="1.98138">
        <ele>148.66</ele>
        <time>2016-01-12T08:53:22Z</time>
      </trkpt>
      <trkpt lat="48.59668" lon="1.9815">
        <ele>148.66</ele>
        <time>2016-01-12T08:53:30Z</time>
      </trkpt>
      <trkpt lat="48.59669" lon="1.98155">
        <ele>148.66</ele>
        <time>2016-01-12T08:53:33Z</time>
      </trkpt>
      <trkpt lat="48.59675" lon="1.98165">
        <ele>147.7</ele>
        <time>2016-01-12T08:53:40Z</time>
      </trkpt>
      <trkpt lat="48.59687" lon="1.98182">
        <ele>146.26</ele>
        <time>2016-01-12T08:53:50Z</time>
      </trkpt>
      <trkpt lat="48.59696" lon="1.98188">
        <ele>145.78</ele>
        <time>2016-01-12T08:53:58Z</time>
      </trkpt>
      <trkpt lat="48.59713" lon="1.98195">
        <ele>144.34</ele>
        <time>2016-01-12T08:54:08Z</time>
      </trkpt>
      <trkpt lat="48.59728" lon="1.98199">
        <ele>142.89</ele>
        <time>2016-01-12T08:54:18Z</time>
      </trkpt>
      <trkpt lat="48.59733" lon="1.98204">
        <ele>141.93</ele>
        <time>2016-01-12T08:54:24Z</time>
      </trkpt>
      <trkpt lat="48.59743" lon="1.98207">
        <ele>140.97</ele>
        <time>2016-01-12T08:54:31Z</time>
      </trkpt>
      <trkpt lat="48.5975" lon="1.98213">
        <ele>140.01</ele>
        <time>2016-01-12T08:54:37Z</time>
      </trkpt>
      <trkpt lat="48.59759" lon="1.98216">
        <ele>139.05</ele>
        <time>2016-01-12T08:54:45Z</time>
      </trkpt>
      <trkpt lat="48.59765" lon="1.98219">
        <ele>138.09</ele>
        <time>2016-01-12T08:54:50Z</time>
      </trkpt>
      <trkpt lat="48.59774" lon="1.98227">
        <ele>137.13</ele>
        <time>2016-01-12T08:54:59Z</time>
      </trkpt>
      <trkpt lat="48.59777" lon="1.9823">
        <ele>137.13</ele>
        <time>2016-01-12T08:55:01Z</time>
      </trkpt>
      <trkpt lat="48.59784" lon="1.9824">
        <ele>136.16</ele>
        <time>2016-01-12T08:55:07Z</time>
      </trkpt>
      <trkpt lat="48.59796" lon="1.98251">
        <ele>134.24</ele>
        <time>2016-01-12T08:55:16Z</time>
      </trkpt>
      <trkpt lat="48.59798" lon="1.98252">
        <ele>133.76</ele>
        <time>2016-01-12T08:55:17Z</time>
      </trkpt>
      <trkpt lat="48.5981" lon="1.98251">
        <ele>131.84</ele>
        <time>2016-01-12T08:55:25Z</time>
      </trkpt>
      <trkpt lat="48.59819" lon="1.98252">
        <ele>130.4</ele>
        <time>2016-01-12T08:55:32Z</time>
      </trkpt>
      <trkpt lat="48.59825" lon="1.98255">
        <ele>128.95</ele>
        <time>2016-01-12T08:55:39Z</time>
      </trkpt>
      <trkpt lat="48.59831" lon="1.98258">
        <ele>127.99</ele>
        <time>2016-01-12T08:55:44Z</time>
      </trkpt>
      <trkpt lat="48.59842" lon="1.98261">
        <ele>126.07</ele>
        <time>2016-01-12T08:55:53Z</time>
      </trkpt>
      <trkpt lat="48.5985" lon="1.98265">
        <ele>125.59</ele>
        <time>2016-01-12T08:56:01Z</time>
      </trkpt>
      <trkpt lat="48.59854" lon="1.98268">
        <ele>125.11</ele>
        <time>2016-01-12T08:56:04Z</time>
      </trkpt>
      <trkpt lat="48.59866" lon="1.98271">
        <ele>125.11</ele>
        <time>2016-01-12T08:56:11Z</time>
      </trkpt>
      <trkpt lat="48.59871" lon="1.98276">
        <ele>123.19</ele>
        <time>2016-01-12T08:56:19Z</time>
      </trkpt>
      <trkpt lat="48.59876" lon="1.98285">
        <ele>122.22</ele>
        <time>2016-01-12T08:56:27Z</time>
      </trkpt>
      <trkpt lat="48.59878" lon="1.9829">
        <ele>122.22</ele>
        <time>2016-01-12T08:56:30Z</time>
      </trkpt>
      <trkpt lat="48.59883" lon="1.98302">
        <ele>121.26</ele>
        <time>2016-01-12T08:56:39Z</time>
      </trkpt>
      <trkpt lat="48.59885" lon="1.98301">
        <ele>121.26</ele>
        <time>2016-01-12T08:56:47Z</time>
      </trkpt>
      <trkpt lat="48.59889" lon="1.98301">
        <ele>120.78</ele>
        <time>2016-01-12T08:56:57Z</time>
      </trkpt>
      <trkpt lat="48.5989" lon="1.98302">
        <ele>121.26</ele>
        <time>2016-01-12T08:57:11Z</time>
      </trkpt>
      <trkpt lat="48.5989" lon="1.98307">
        <ele>121.26</ele>
        <time>2016-01-12T08:57:20Z</time>
      </trkpt>
      <trkpt lat="48.5989" lon="1.98308">
        <ele>121.26</ele>
        <time>2016-01-12T08:57:21Z</time>
      </trkpt>
      <trkpt lat="48.59886" lon="1.98317">
        <ele>122.22</ele>
        <time>2016-01-12T08:57:29Z</time>
      </trkpt>
      <trkpt lat="48.59881" lon="1.98326">
        <ele>121.74</ele>
        <time>2016-01-12T08:57:36Z</time>
      </trkpt>
      <trkpt lat="48.59877" lon="1.98337">
        <ele>121.74</ele>
        <time>2016-01-12T08:57:44Z</time>
      </trkpt>
      <trkpt lat="48.59875" lon="1.98342">
        <ele>121.74</ele>
        <time>2016-01-12T08:57:47Z</time>
      </trkpt>
      <trkpt lat="48.59869" lon="1.98353">
        <ele>121.74</ele>
        <time>2016-01-12T08:57:54Z</time>
      </trkpt>
      <trkpt lat="48.5986" lon="1.9838">
        <ele>120.78</ele>
        <time>2016-01-12T08:58:03Z</time>
      </trkpt>
      <trkpt lat="48.59848" lon="1.98406">
        <ele>119.82</ele>
        <time>2016-01-12T08:58:12Z</time>
      </trkpt>
      <trkpt lat="48.59845" lon="1.98419">
        <ele>121.26</ele>
        <time>2016-01-12T08:58:17Z</time>
      </trkpt>
      <trkpt lat="48.59845" lon="1.98428">
        <ele>122.22</ele>
        <time>2016-01-12T08:58:23Z</time>
      </trkpt>
      <trkpt lat="48.59845" lon="1.98438">
        <ele>123.19</ele>
        <time>2016-01-12T08:58:28Z</time>
      </trkpt>
      <trkpt lat="48.5985" lon="1.98452">
        <ele>123.19</ele>
        <time>2016-01-12T08:58:38Z</time>
      </trkpt>
      <trkpt lat="48.59853" lon="1.98465">
        <ele>123.19</ele>
        <time>2016-01-12T08:58:45Z</time>
      </trkpt>
      <trkpt lat="48.59856" lon="1.98477">
        <ele>123.67</ele>
        <time>2016-01-12T08:58:52Z</time>
      </trkpt>
      <trkpt lat="48.59854" lon="1.98484">
        <ele>124.63</ele>
        <time>2016-01-12T08:58:57Z</time>
      </trkpt>
      <trkpt lat="48.59848" lon="1.98493">
        <ele>126.07</ele>
        <time>2016-01-12T08:59:04Z</time>
      </trkpt>
      <trkpt lat="48.59848" lon="1.98494">
        <ele>126.07</ele>
        <time>2016-01-12T08:59:05Z</time>
      </trkpt>
      <trkpt lat="48.59846" lon="1.98496">
        <ele>127.03</ele>
        <time>2016-01-12T08:59:07Z</time>
      </trkpt>
      <trkpt lat="48.59842" lon="1.985">
        <ele>127.03</ele>
        <time>2016-01-12T08:59:11Z</time>
      </trkpt>
      <trkpt lat="48.5984" lon="1.98503">
        <ele>127.99</ele>
        <time>2016-01-12T08:59:13Z</time>
      </trkpt>
      <trkpt lat="48.59837" lon="1.98512">
        <ele>128.95</ele>
        <time>2016-01-12T08:59:19Z</time>
      </trkpt>
      <trkpt lat="48.59836" lon="1.98513">
        <ele>128.95</ele>
        <time>2016-01-12T08:59:21Z</time>
      </trkpt>
      <trkpt lat="48.59834" lon="1.98514">
        <ele>129.92</ele>
        <time>2016-01-12T08:59:25Z</time>
      </trkpt>
      <trkpt lat="48.59826" lon="1.98514">
        <ele>131.36</ele>
        <time>2016-01-12T08:59:30Z</time>
      </trkpt>
      <trkpt lat="48.59822" lon="1.98514">
        <ele>132.8</ele>
        <time>2016-01-12T08:59:34Z</time>
      </trkpt>
      <trkpt lat="48.5982" lon="1.98513">
        <ele>134.24</ele>
        <time>2016-01-12T08:59:39Z</time>
      </trkpt>
      <trkpt lat="48.59815" lon="1.98513">
        <ele>135.68</ele>
        <time>2016-01-12T08:59:44Z</time>
      </trkpt>
      <trkpt lat="48.59804" lon="1.98518">
        <ele>136.64</ele>
        <time>2016-01-12T08:59:52Z</time>
      </trkpt>
      <trkpt lat="48.59799" lon="1.98519">
        <ele>137.61</ele>
        <time>2016-01-12T08:59:56Z</time>
      </trkpt>
      <trkpt lat="48.59792" lon="1.98521">
        <ele>139.05</ele>
        <time>2016-01-12T09:00:00Z</time>
      </trkpt>
      <trkpt lat="48.59783" lon="1.98528">
        <ele>139.53</ele>
        <time>2016-01-12T09:00:06Z</time>
      </trkpt>
      <trkpt lat="48.59782" lon="1.98528">
        <ele>140.01</ele>
        <time>2016-01-12T09:00:07Z</time>
      </trkpt>
      <trkpt lat="48.59772" lon="1.98538">
        <ele>140.97</ele>
        <time>2016-01-12T09:00:17Z</time>
      </trkpt>
      <trkpt lat="48.59771" lon="1.98539">
        <ele>140.97</ele>
        <time>2016-01-12T09:00:18Z</time>
      </trkpt>
      <trkpt lat="48.59762" lon="1.98543">
        <ele>141.45</ele>
        <time>2016-01-12T09:00:26Z</time>
      </trkpt>
      <trkpt lat="48.59761" lon="1.98543">
        <ele>141.45</ele>
        <time>2016-01-12T09:00:27Z</time>
      </trkpt>
      <trkpt lat="48.59749" lon="1.98546">
        <ele>141.93</ele>
        <time>2016-01-12T09:00:36Z</time>
      </trkpt>
      <trkpt lat="48.59743" lon="1.9855">
        <ele>141.45</ele>
        <time>2016-01-12T09:00:40Z</time>
      </trkpt>
      <trkpt lat="48.59736" lon="1.98557">
        <ele>141.93</ele>
        <time>2016-01-12T09:00:45Z</time>
      </trkpt>
      <trkpt lat="48.59732" lon="1.9856">
        <ele>141.45</ele>
        <time>2016-01-12T09:00:47Z</time>
      </trkpt>
      <trkpt lat="48.59727" lon="1.98564">
        <ele>141.93</ele>
        <time>2016-01-12T09:00:51Z</time>
      </trkpt>
      <trkpt lat="48.59718" lon="1.98568">
        <ele>141.93</ele>
        <time>2016-01-12T09:00:58Z</time>
      </trkpt>
      <trkpt lat="48.5971" lon="1.98575">
        <ele>141.93</ele>
        <time>2016-01-12T09:01:04Z</time>
      </trkpt>
      <trkpt lat="48.59702" lon="1.98589">
        <ele>141.45</ele>
        <time>2016-01-12T09:01:11Z</time>
      </trkpt>
      <trkpt lat="48.597" lon="1.98591">
        <ele>141.45</ele>
        <time>2016-01-12T09:01:21Z</time>
      </trkpt>
      <trkpt lat="48.59701" lon="1.9859">
        <ele>140.97</ele>
        <time>2016-01-12T09:01:29Z</time>
      </trkpt>
      <trkpt lat="48.59701" lon="1.98591">
        <ele>140.97</ele>
        <time>2016-01-12T09:01:36Z</time>
      </trkpt>
      <trkpt lat="48.59701" lon="1.9859">
        <ele>140.49</ele>
        <time>2016-01-12T09:01:44Z</time>
      </trkpt>
      <trkpt lat="48.59701" lon="1.98592">
        <ele>140.01</ele>
        <time>2016-01-12T09:01:52Z</time>
      </trkpt>
      <trkpt lat="48.59702" lon="1.98589">
        <ele>139.53</ele>
        <time>2016-01-12T09:02:06Z</time>
      </trkpt>
      <trkpt lat="48.59703" lon="1.98589">
        <ele>138.57</ele>
        <time>2016-01-12T09:02:09Z</time>
      </trkpt>
      <trkpt lat="48.59706" lon="1.98602">
        <ele>136.16</ele>
        <time>2016-01-12T09:02:19Z</time>
      </trkpt>
      <trkpt lat="48.59706" lon="1.98614">
        <ele>134.24</ele>
        <time>2016-01-12T09:02:27Z</time>
      </trkpt>
      <trkpt lat="48.59707" lon="1.98622">
        <ele>132.32</ele>
        <time>2016-01-12T09:02:32Z</time>
      </trkpt>
      <trkpt lat="48.59706" lon="1.98634">
        <ele>130.4</ele>
        <time>2016-01-12T09:02:40Z</time>
      </trkpt>
      <trkpt lat="48.59705" lon="1.98644">
        <ele>127.99</ele>
        <time>2016-01-12T09:02:50Z</time>
      </trkpt>
      <trkpt lat="48.59699" lon="1.98653">
        <ele>126.55</ele>
        <time>2016-01-12T09:02:56Z</time>
      </trkpt>
      <trkpt lat="48.59692" lon="1.98671">
        <ele>124.63</ele>
        <time>2016-01-12T09:03:04Z</time>
      </trkpt>
      <trkpt lat="48.59685" lon="1.98684">
        <ele>123.67</ele>
        <time>2016-01-12T09:03:12Z</time>
      </trkpt>
      <trkpt lat="48.59684" lon="1.98693">
        <ele>121.74</ele>
        <time>2016-01-12T09:03:20Z</time>
      </trkpt>
      <trkpt lat="48.59672" lon="1.98703">
        <ele>121.26</ele>
        <time>2016-01-12T09:03:29Z</time>
      </trkpt>
      <trkpt lat="48.59668" lon="1.98705">
        <ele>120.78</ele>
        <time>2016-01-12T09:03:32Z</time>
      </trkpt>
      <trkpt lat="48.59665" lon="1.98706">
        <ele>120.78</ele>
        <time>2016-01-12T09:03:35Z</time>
      </trkpt>
      <trkpt lat="48.59656" lon="1.98703">
        <ele>121.26</ele>
        <time>2016-01-12T09:03:40Z</time>
      </trkpt>
      <trkpt lat="48.5965" lon="1.98699">
        <ele>121.26</ele>
        <time>2016-01-12T09:03:45Z</time>
      </trkpt>
      <trkpt lat="48.5964" lon="1.98691">
        <ele>121.26</ele>
        <time>2016-01-12T09:03:52Z</time>
      </trkpt>
      <trkpt lat="48.59632" lon="1.98691">
        <ele>120.78</ele>
        <time>2016-01-12T09:03:58Z</time>
      </trkpt>
      <trkpt lat="48.59624" lon="1.98703">
        <ele>119.82</ele>
        <time>2016-01-12T09:04:07Z</time>
      </trkpt>
      <trkpt lat="48.59615" lon="1.98714">
        <ele>119.82</ele>
        <time>2016-01-12T09:04:15Z</time>
      </trkpt>
      <trkpt lat="48.5961" lon="1.98728">
        <ele>119.34</ele>
        <time>2016-01-12T09:04:23Z</time>
      </trkpt>
      <trkpt lat="48.59605" lon="1.98737">
        <ele>118.38</ele>
        <time>2016-01-12T09:04:28Z</time>
      </trkpt>
      <trkpt lat="48.596" lon="1.98743">
        <ele>117.9</ele>
        <time>2016-01-12T09:04:35Z</time>
      </trkpt>
      <trkpt lat="48.59599" lon="1.98744">
        <ele>119.34</ele>
        <time>2016-01-12T09:04:36Z</time>
      </trkpt>
      <trkpt lat="48.59592" lon="1.98754">
        <ele>118.38</ele>
        <time>2016-01-12T09:04:41Z</time>
      </trkpt>
      <trkpt lat="48.59581" lon="1.98769">
        <ele>119.34</ele>
        <time>2016-01-12T09:04:50Z</time>
      </trkpt>
      <trkpt lat="48.5958" lon="1.98772">
        <ele>120.3</ele>
        <time>2016-01-12T09:04:52Z</time>
      </trkpt>
      <trkpt lat="48.59572" lon="1.98774">
        <ele>120.3</ele>
        <time>2016-01-12T09:04:58Z</time>
      </trkpt>
      <trkpt lat="48.59571" lon="1.98775">
        <ele>120.78</ele>
        <time>2016-01-12T09:04:59Z</time>
      </trkpt>
      <trkpt lat="48.59566" lon="1.98775">
        <ele>120.78</ele>
        <time>2016-01-12T09:05:02Z</time>
      </trkpt>
      <trkpt lat="48.59556" lon="1.98782">
        <ele>120.78</ele>
        <time>2016-01-12T09:05:10Z</time>
      </trkpt>
      <trkpt lat="48.59554" lon="1.98789">
        <ele>119.82</ele>
        <time>2016-01-12T09:05:14Z</time>
      </trkpt>
      <trkpt lat="48.59551" lon="1.98798">
        <ele>119.82</ele>
        <time>2016-01-12T09:05:21Z</time>
      </trkpt>
      <trkpt lat="48.59552" lon="1.98798">
        <ele>120.3</ele>
        <time>2016-01-12T09:05:28Z</time>
      </trkpt>
      <trkpt lat="48.59552" lon="1.98797">
        <ele>120.3</ele>
        <time>2016-01-12T09:05:41Z</time>
      </trkpt>
      <trkpt lat="48.59552" lon="1.98797">
        <ele>119.82</ele>
        <time>2016-01-12T09:05:57Z</time>
      </trkpt>
      <trkpt lat="48.59551" lon="1.98798">
        <ele>119.34</ele>
        <time>2016-01-12T09:06:08Z</time>
      </trkpt>
      <trkpt lat="48.59551" lon="1.98798">
        <ele>120.3</ele>
        <time>2016-01-12T09:06:18Z</time>
      </trkpt>
      <trkpt lat="48.59551" lon="1.98798">
        <ele>119.82</ele>
        <time>2016-01-12T09:06:30Z</time>
      </trkpt>
      <trkpt lat="48.59552" lon="1.98797">
        <ele>119.82</ele>
        <time>2016-01-12T09:06:39Z</time>
      </trkpt>
      <trkpt lat="48.59551" lon="1.988">
        <ele>119.34</ele>
        <time>2016-01-12T09:06:49Z</time>
      </trkpt>
      <trkpt lat="48.59552" lon="1.98801">
        <ele>119.82</ele>
        <time>2016-01-12T09:06:58Z</time>
      </trkpt>
      <trkpt lat="48.59552" lon="1.98801">
        <ele>119.82</ele>
        <time>2016-01-12T09:07:06Z</time>
      </trkpt>
      <trkpt lat="48.59549" lon="1.98799">
        <ele>119.34</ele>
        <time>2016-01-12T09:07:12Z</time>
      </trkpt>
      <trkpt lat="48.59549" lon="1.98799">
        <ele>119.82</ele>
        <time>2016-01-12T09:07:15Z</time>
      </trkpt>
      <trkpt lat="48.5955" lon="1.98796">
        <ele>120.78</ele>
        <time>2016-01-12T09:07:21Z</time>
      </trkpt>
      <trkpt lat="48.59552" lon="1.98797">
        <ele>119.82</ele>
        <time>2016-01-12T09:07:31Z</time>
      </trkpt>
      <trkpt lat="48.59554" lon="1.98798">
        <ele>119.82</ele>
        <time>2016-01-12T09:07:38Z</time>
      </trkpt>
      <trkpt lat="48.59554" lon="1.98799">
        <ele>119.82</ele>
        <time>2016-01-12T09:07:47Z</time>
      </trkpt>
      <trkpt lat="48.59554" lon="1.98799">
        <ele>119.34</ele>
        <time>2016-01-12T09:07:58Z</time>
      </trkpt>
      <trkpt lat="48.59554" lon="1.988">
        <ele>119.34</ele>
        <time>2016-01-12T09:08:10Z</time>
      </trkpt>
      <trkpt lat="48.59554" lon="1.98799">
        <ele>119.34</ele>
        <time>2016-01-12T09:08:11Z</time>
      </trkpt>
      <trkpt lat="48.59556" lon="1.988">
        <ele>119.34</ele>
        <time>2016-01-12T09:08:18Z</time>
      </trkpt>
      <trkpt lat="48.59555" lon="1.98801">
        <ele>119.82</ele>
        <time>2016-01-12T09:08:24Z</time>
      </trkpt>
      <trkpt lat="48.59557" lon="1.98804">
        <ele>119.82</ele>
        <time>2016-01-12T09:08:39Z</time>
      </trkpt>
      <trkpt lat="48.59557" lon="1.98803">
        <ele>119.82</ele>
        <time>2016-01-12T09:08:45Z</time>
      </trkpt>
      <trkpt lat="48.59555" lon="1.98803">
        <ele>119.82</ele>
        <time>2016-01-12T09:08:51Z</time>
      </trkpt>
      <trkpt lat="48.59555" lon="1.98804">
        <ele>119.34</ele>
        <time>2016-01-12T09:08:58Z</time>
      </trkpt>
      <trkpt lat="48.59555" lon="1.98804">
        <ele>119.34</ele>
        <time>2016-01-12T09:09:10Z</time>
      </trkpt>
      <trkpt lat="48.59555" lon="1.98804">
        <ele>120.3</ele>
        <time>2016-01-12T09:09:13Z</time>
      </trkpt>
      <trkpt lat="48.59558" lon="1.98803">
        <ele>119.34</ele>
        <time>2016-01-12T09:09:15Z</time>
      </trkpt>
      <trkpt lat="48.59561" lon="1.98803">
        <ele>118.38</ele>
        <time>2016-01-12T09:09:17Z</time>
      </trkpt>
      <trkpt lat="48.59572" lon="1.98799">
        <ele>119.34</ele>
        <time>2016-01-12T09:09:25Z</time>
      </trkpt>
      <trkpt lat="48.59584" lon="1.98796">
        <ele>119.34</ele>
        <time>2016-01-12T09:09:34Z</time>
      </trkpt>
      <trkpt lat="48.59596" lon="1.9879">
        <ele>118.86</ele>
        <time>2016-01-12T09:09:42Z</time>
      </trkpt>
      <trkpt lat="48.59603" lon="1.9879">
        <ele>120.3</ele>
        <time>2016-01-12T09:09:47Z</time>
      </trkpt>
      <trkpt lat="48.59612" lon="1.98789">
        <ele>118.38</ele>
        <time>2016-01-12T09:09:54Z</time>
      </trkpt>
      <trkpt lat="48.59627" lon="1.98788">
        <ele>117.42</ele>
        <time>2016-01-12T09:10:03Z</time>
      </trkpt>
      <trkpt lat="48.59642" lon="1.98786">
        <ele>116.46</ele>
        <time>2016-01-12T09:10:14Z</time>
      </trkpt>
      <trkpt lat="48.59654" lon="1.98787">
        <ele>115.5</ele>
        <time>2016-01-12T09:10:23Z</time>
      </trkpt>
      <trkpt lat="48.59662" lon="1.98785">
        <ele>115.98</ele>
        <time>2016-01-12T09:10:30Z</time>
      </trkpt>
      <trkpt lat="48.59667" lon="1.98785">
        <ele>115.01</ele>
        <time>2016-01-12T09:10:33Z</time>
      </trkpt>
      <trkpt lat="48.59681" lon="1.98786">
        <ele>115.01</ele>
        <time>2016-01-12T09:10:42Z</time>
      </trkpt>
      <trkpt lat="48.59692" lon="1.98788">
        <ele>114.05</ele>
        <time>2016-01-12T09:10:49Z</time>
      </trkpt>
      <trkpt lat="48.59705" lon="1.98788">
        <ele>113.57</ele>
        <time>2016-01-12T09:10:57Z</time>
      </trkpt>
      <trkpt lat="48.59715" lon="1.98789">
        <ele>113.57</ele>
        <time>2016-01-12T09:11:06Z</time>
      </trkpt>
      <trkpt lat="48.59725" lon="1.98788">
        <ele>113.09</ele>
        <time>2016-01-12T09:11:14Z</time>
      </trkpt>
      <trkpt lat="48.59739" lon="1.98789">
        <ele>112.61</ele>
        <time>2016-01-12T09:11:25Z</time>
      </trkpt>
      <trkpt lat="48.5974" lon="1.98789">
        <ele>112.13</ele>
        <time>2016-01-12T09:11:26Z</time>
      </trkpt>
      <trkpt lat="48.59743" lon="1.98788">
        <ele>111.65</ele>
        <time>2016-01-12T09:11:28Z</time>
      </trkpt>
      <trkpt lat="48.59758" lon="1.9879">
        <ele>111.17</ele>
        <time>2016-01-12T09:11:37Z</time>
      </trkpt>
      <trkpt lat="48.59764" lon="1.98788">
        <ele>109.73</ele>
        <time>2016-01-12T09:11:41Z</time>
      </trkpt>
      <trkpt lat="48.5977" lon="1.98788">
        <ele>111.17</ele>
        <time>2016-01-12T09:11:44Z</time>
      </trkpt>
      <trkpt lat="48.59784" lon="1.98788">
        <ele>111.65</ele>
        <time>2016-01-12T09:11:53Z</time>
      </trkpt>
      <trkpt lat="48.59789" lon="1.98789">
        <ele>110.21</ele>
        <time>2016-01-12T09:11:56Z</time>
      </trkpt>
      <trkpt lat="48.59794" lon="1.98791">
        <ele>109.73</ele>
        <time>2016-01-12T09:12:00Z</time>
      </trkpt>
      <trkpt lat="48.59799" lon="1.98791">
        <ele>109.73</ele>
        <time>2016-01-12T09:12:04Z</time>
      </trkpt>
      <trkpt lat="48.59801" lon="1.98792">
        <ele>109.25</ele>
        <time>2016-01-12T09:12:06Z</time>
      </trkpt>
      <trkpt lat="48.59808" lon="1.98792">
        <ele>110.21</ele>
        <time>2016-01-12T09:12:11Z</time>
      </trkpt>
      <trkpt lat="48.59812" lon="1.98791">
        <ele>108.77</ele>
        <time>2016-01-12T09:12:14Z</time>
      </trkpt>
      <trkpt lat="48.59825" lon="1.98791">
        <ele>108.77</ele>
        <time>2016-01-12T09:12:23Z</time>
      </trkpt>
      <trkpt lat="48.5984" lon="1.98789">
        <ele>107.32</ele>
        <time>2016-01-12T09:12:34Z</time>
      </trkpt>
      <trkpt lat="48.59853" lon="1.98786">
        <ele>106.36</ele>
        <time>2016-01-12T09:12:43Z</time>
      </trkpt>
      <trkpt lat="48.59859" lon="1.98786">
        <ele>107.81</ele>
        <time>2016-01-12T09:12:47Z</time>
      </trkpt>
      <trkpt lat="48.59872" lon="1.98782">
        <ele>107.32</ele>
        <time>2016-01-12T09:12:56Z</time>
      </trkpt>
      <trkpt lat="48.59887" lon="1.98776">
        <ele>106.36</ele>
        <time>2016-01-12T09:13:07Z</time>
      </trkpt>
      <trkpt lat="48.599" lon="1.98773">
        <ele>106.36</ele>
        <time>2016-01-12T09:13:16Z</time>
      </trkpt>
      <trkpt lat="48.59915" lon="1.9877">
        <ele>106.36</ele>
        <time>2016-01-12T09:13:25Z</time>
      </trkpt>
      <trkpt lat="48.59916" lon="1.98769">
        <ele>105.4</ele>
        <time>2016-01-12T09:13:26Z</time>
      </trkpt>
      <trkpt lat="48.59924" lon="1.98768">
        <ele>104.44</ele>
        <time>2016-01-12T09:13:31Z</time>
      </trkpt>
      <trkpt lat="48.59931" lon="1.98767">
        <ele>105.4</ele>
        <time>2016-01-12T09:13:35Z</time>
      </trkpt>
      <trkpt lat="48.59941" lon="1.98763">
        <ele>104.92</ele>
        <time>2016-01-12T09:13:43Z</time>
      </trkpt>
      <trkpt lat="48.59955" lon="1.98761">
        <ele>103.96</ele>
        <time>2016-01-12T09:13:52Z</time>
      </trkpt>
      <trkpt lat="48.59957" lon="1.98761">
        <ele>104.92</ele>
        <time>2016-01-12T09:13:54Z</time>
      </trkpt>
      <trkpt lat="48.59968" lon="1.98758">
        <ele>103.48</ele>
        <time>2016-01-12T09:14:02Z</time>
      </trkpt>
      <trkpt lat="48.59978" lon="1.98755">
        <ele>103</ele>
        <time>2016-01-12T09:14:10Z</time>
      </trkpt>
      <trkpt lat="48.59989" lon="1.98751">
        <ele>103</ele>
        <time>2016-01-12T09:14:18Z</time>
      </trkpt>
      <trkpt lat="48.59999" lon="1.98751">
        <ele>103.48</ele>
        <time>2016-01-12T09:14:25Z</time>
      </trkpt>
      <trkpt lat="48.60006" lon="1.98748">
        <ele>102.52</ele>
        <time>2016-01-12T09:14:31Z</time>
      </trkpt>
      <trkpt lat="48.60021" lon="1.98743">
        <ele>102.52</ele>
        <time>2016-01-12T09:14:41Z</time>
      </trkpt>
      <trkpt lat="48.60025" lon="1.98742">
        <ele>103.48</ele>
        <time>2016-01-12T09:14:43Z</time>
      </trkpt>
      <trkpt lat="48.60043" lon="1.98738">
        <ele>103.48</ele>
        <time>2016-01-12T09:14:52Z</time>
      </trkpt>
      <trkpt lat="48.60044" lon="1.98737">
        <ele>103.48</ele>
        <time>2016-01-12T09:14:53Z</time>
      </trkpt>
      <trkpt lat="48.60054" lon="1.9873">
        <ele>103.48</ele>
        <time>2016-01-12T09:15:01Z</time>
      </trkpt>
      <trkpt lat="48.60055" lon="1.98729">
        <ele>103.48</ele>
        <time>2016-01-12T09:15:02Z</time>
      </trkpt>
      <trkpt lat="48.60067" lon="1.98727">
        <ele>104.44</ele>
        <time>2016-01-12T09:15:10Z</time>
      </trkpt>
      <trkpt lat="48.60073" lon="1.98719">
        <ele>105.4</ele>
        <time>2016-01-12T09:15:16Z</time>
      </trkpt>
      <trkpt lat="48.60074" lon="1.98718">
        <ele>104.92</ele>
        <time>2016-01-12T09:15:17Z</time>
      </trkpt>
      <trkpt lat="48.60083" lon="1.9871">
        <ele>103.96</ele>
        <time>2016-01-12T09:15:26Z</time>
      </trkpt>
      <trkpt lat="48.60091" lon="1.98704">
        <ele>105.4</ele>
        <time>2016-01-12T09:15:32Z</time>
      </trkpt>
      <trkpt lat="48.60101" lon="1.98698">
        <ele>105.88</ele>
        <time>2016-01-12T09:15:39Z</time>
      </trkpt>
      <trkpt lat="48.60113" lon="1.98692">
        <ele>104.92</ele>
        <time>2016-01-12T09:15:49Z</time>
      </trkpt>
      <trkpt lat="48.60122" lon="1.98687">
        <ele>104.44</ele>
        <time>2016-01-12T09:15:57Z</time>
      </trkpt>
      <trkpt lat="48.60124" lon="1.98685">
        <ele>105.88</ele>
        <time>2016-01-12T09:15:59Z</time>
      </trkpt>
      <trkpt lat="48.60126" lon="1.98683">
        <ele>104.92</ele>
        <time>2016-01-12T09:16:01Z</time>
      </trkpt>
      <trkpt lat="48.60127" lon="1.98671">
        <ele>104.92</ele>
        <time>2016-01-12T09:16:09Z</time>
      </trkpt>
      <trkpt lat="48.60127" lon="1.98669">
        <ele>107.32</ele>
        <time>2016-01-12T09:16:11Z</time>
      </trkpt>
      <trkpt lat="48.60124" lon="1.98669">
        <ele>105.88</ele>
        <time>2016-01-12T09:16:13Z</time>
      </trkpt>
      <trkpt lat="48.60119" lon="1.98665">
        <ele>107.81</ele>
        <time>2016-01-12T09:16:17Z</time>
      </trkpt>
      <trkpt lat="48.60118" lon="1.98661">
        <ele>105.88</ele>
        <time>2016-01-12T09:16:20Z</time>
      </trkpt>
      <trkpt lat="48.60117" lon="1.98659">
        <ele>107.32</ele>
        <time>2016-01-12T09:16:21Z</time>
      </trkpt>
      <trkpt lat="48.60115" lon="1.98649">
        <ele>107.81</ele>
        <time>2016-01-12T09:16:28Z</time>
      </trkpt>
      <trkpt lat="48.60115" lon="1.98648">
        <ele>106.84</ele>
        <time>2016-01-12T09:16:35Z</time>
      </trkpt>
      <trkpt lat="48.60115" lon="1.98647">
        <ele>106.84</ele>
        <time>2016-01-12T09:16:54Z</time>
      </trkpt>
      <trkpt lat="48.60121" lon="1.98653">
        <ele>105.4</ele>
        <time>2016-01-12T09:17:03Z</time>
      </trkpt>
      <trkpt lat="48.6012" lon="1.98658">
        <ele>106.36</ele>
        <time>2016-01-12T09:17:05Z</time>
      </trkpt>
      <trkpt lat="48.60128" lon="1.98666">
        <ele>106.84</ele>
        <time>2016-01-12T09:17:15Z</time>
      </trkpt>
      <trkpt lat="48.60139" lon="1.98672">
        <ele>105.88</ele>
        <time>2016-01-12T09:17:24Z</time>
      </trkpt>
      <trkpt lat="48.60141" lon="1.9867">
        <ele>106.36</ele>
        <time>2016-01-12T09:17:28Z</time>
      </trkpt>
      <trkpt lat="48.60146" lon="1.98664">
        <ele>104.92</ele>
        <time>2016-01-12T09:17:35Z</time>
      </trkpt>
      <trkpt lat="48.60148" lon="1.98661">
        <ele>105.4</ele>
        <time>2016-01-12T09:17:37Z</time>
      </trkpt>
      <trkpt lat="48.60157" lon="1.98648">
        <ele>104.92</ele>
        <time>2016-01-12T09:17:47Z</time>
      </trkpt>
      <trkpt lat="48.60165" lon="1.98642">
        <ele>104.44</ele>
        <time>2016-01-12T09:17:55Z</time>
      </trkpt>
      <trkpt lat="48.60172" lon="1.98634">
        <ele>104.92</ele>
        <time>2016-01-12T09:18:03Z</time>
      </trkpt>
      <trkpt lat="48.60183" lon="1.98624">
        <ele>104.44</ele>
        <time>2016-01-12T09:18:12Z</time>
      </trkpt>
      <trkpt lat="48.6019" lon="1.98618">
        <ele>103</ele>
        <time>2016-01-12T09:18:19Z</time>
      </trkpt>
      <trkpt lat="48.60201" lon="1.98605">
        <ele>102.52</ele>
        <time>2016-01-12T09:18:27Z</time>
      </trkpt>
      <trkpt lat="48.6021" lon="1.98596">
        <ele>103</ele>
        <time>2016-01-12T09:18:35Z</time>
      </trkpt>
      <trkpt lat="48.60216" lon="1.9859">
        <ele>102.04</ele>
        <time>2016-01-12T09:18:41Z</time>
      </trkpt>
      <trkpt lat="48.60226" lon="1.98581">
        <ele>101.08</ele>
        <time>2016-01-12T09:18:50Z</time>
      </trkpt>
      <trkpt lat="48.60233" lon="1.9857">
        <ele>101.56</ele>
        <time>2016-01-12T09:18:57Z</time>
      </trkpt>
      <trkpt lat="48.60244" lon="1.98562">
        <ele>101.56</ele>
        <time>2016-01-12T09:19:06Z</time>
      </trkpt>
      <trkpt lat="48.60255" lon="1.98552">
        <ele>100.6</ele>
        <time>2016-01-12T09:19:15Z</time>
      </trkpt>
      <trkpt lat="48.60262" lon="1.98545">
        <ele>101.08</ele>
        <time>2016-01-12T09:19:21Z</time>
      </trkpt>
      <trkpt lat="48.6027" lon="1.98533">
        <ele>101.08</ele>
        <time>2016-01-12T09:19:28Z</time>
      </trkpt>
      <trkpt lat="48.60273" lon="1.9853">
        <ele>101.08</ele>
        <time>2016-01-12T09:19:30Z</time>
      </trkpt>
      <trkpt lat="48.60286" lon="1.98513">
        <ele>100.6</ele>
        <time>2016-01-12T09:19:41Z</time>
      </trkpt>
      <trkpt lat="48.6029" lon="1.98504">
        <ele>102.52</ele>
        <time>2016-01-12T09:19:47Z</time>
      </trkpt>
      <trkpt lat="48.6029" lon="1.98499">
        <ele>101.08</ele>
        <time>2016-01-12T09:19:49Z</time>
      </trkpt>
      <trkpt lat="48.60294" lon="1.98489">
        <ele>103</ele>
        <time>2016-01-12T09:19:54Z</time>
      </trkpt>
      <trkpt lat="48.603" lon="1.98477">
        <ele>103</ele>
        <time>2016-01-12T09:20:01Z</time>
      </trkpt>
      <trkpt lat="48.60305" lon="1.98467">
        <ele>103.96</ele>
        <time>2016-01-12T09:20:07Z</time>
      </trkpt>
      <trkpt lat="48.60309" lon="1.98462">
        <ele>103</ele>
        <time>2016-01-12T09:20:10Z</time>
      </trkpt>
      <trkpt lat="48.6032" lon="1.98451">
        <ele>102.04</ele>
        <time>2016-01-12T09:20:19Z</time>
      </trkpt>
      <trkpt lat="48.60329" lon="1.98444">
        <ele>102.04</ele>
        <time>2016-01-12T09:20:26Z</time>
      </trkpt>
      <trkpt lat="48.60341" lon="1.98432">
        <ele>100.6</ele>
        <time>2016-01-12T09:20:36Z</time>
      </trkpt>
      <trkpt lat="48.60347" lon="1.98422">
        <ele>99.63</ele>
        <time>2016-01-12T09:20:44Z</time>
      </trkpt>
      <trkpt lat="48.6036" lon="1.98414">
        <ele>99.15</ele>
        <time>2016-01-12T09:20:54Z</time>
      </trkpt>
      <trkpt lat="48.60366" lon="1.98406">
        <ele>98.19</ele>
        <time>2016-01-12T09:21:03Z</time>
      </trkpt>
      <trkpt lat="48.60378" lon="1.98398">
        <ele>98.67</ele>
        <time>2016-01-12T09:21:12Z</time>
      </trkpt>
      <trkpt lat="48.60386" lon="1.98395">
        <ele>98.19</ele>
        <time>2016-01-12T09:21:20Z</time>
      </trkpt>
      <trkpt lat="48.60398" lon="1.98391">
        <ele>97.23</ele>
        <time>2016-01-12T09:21:28Z</time>
      </trkpt>
      <trkpt lat="48.60412" lon="1.98384">
        <ele>97.23</ele>
        <time>2016-01-12T09:21:37Z</time>
      </trkpt>
      <trkpt lat="48.60415" lon="1.98383">
        <ele>96.75</ele>
        <time>2016-01-12T09:21:39Z</time>
      </trkpt>
      <trkpt lat="48.60422" lon="1.98377">
        <ele>97.23</ele>
        <time>2016-01-12T09:21:44Z</time>
      </trkpt>
      <trkpt lat="48.60436" lon="1.98372">
        <ele>97.23</ele>
        <time>2016-01-12T09:21:53Z</time>
      </trkpt>
      <trkpt lat="48.60445" lon="1.9837">
        <ele>97.23</ele>
        <time>2016-01-12T09:22:00Z</time>
      </trkpt>
      <trkpt lat="48.60452" lon="1.9837">
        <ele>96.75</ele>
        <time>2016-01-12T09:22:07Z</time>
      </trkpt>
      <trkpt lat="48.6046" lon="1.98366">
        <ele>97.23</ele>
        <time>2016-01-12T09:22:15Z</time>
      </trkpt>
      <trkpt lat="48.60473" lon="1.98362">
        <ele>97.23</ele>
        <time>2016-01-12T09:22:25Z</time>
      </trkpt>
      <trkpt lat="48.60487" lon="1.9836">
        <ele>96.27</ele>
        <time>2016-01-12T09:22:35Z</time>
      </trkpt>
      <trkpt lat="48.60498" lon="1.98358">
        <ele>95.79</ele>
        <time>2016-01-12T09:22:45Z</time>
      </trkpt>
      <trkpt lat="48.60513" lon="1.98356">
        <ele>97.23</ele>
        <time>2016-01-12T09:22:55Z</time>
      </trkpt>
      <trkpt lat="48.6052" lon="1.98355">
        <ele>98.19</ele>
        <time>2016-01-12T09:22:59Z</time>
      </trkpt>
      <trkpt lat="48.60525" lon="1.98348">
        <ele>98.19</ele>
        <time>2016-01-12T09:23:05Z</time>
      </trkpt>
      <trkpt lat="48.60523" lon="1.98339">
        <ele>97.71</ele>
        <time>2016-01-12T09:23:12Z</time>
      </trkpt>
      <trkpt lat="48.60512" lon="1.98333">
        <ele>98.67</ele>
        <time>2016-01-12T09:23:21Z</time>
      </trkpt>
      <trkpt lat="48.60503" lon="1.98323">
        <ele>98.19</ele>
        <time>2016-01-12T09:23:30Z</time>
      </trkpt>
      <trkpt lat="48.60492" lon="1.98313">
        <ele>98.19</ele>
        <time>2016-01-12T09:23:39Z</time>
      </trkpt>
      <trkpt lat="48.60485" lon="1.98304">
        <ele>98.19</ele>
        <time>2016-01-12T09:23:45Z</time>
      </trkpt>
      <trkpt lat="48.6048" lon="1.98299">
        <ele>98.19</ele>
        <time>2016-01-12T09:23:50Z</time>
      </trkpt>
      <trkpt lat="48.60478" lon="1.98295">
        <ele>98.67</ele>
        <time>2016-01-12T09:23:53Z</time>
      </trkpt>
      <trkpt lat="48.60469" lon="1.98285">
        <ele>98.19</ele>
        <time>2016-01-12T09:24:01Z</time>
      </trkpt>
      <trkpt lat="48.60466" lon="1.98282">
        <ele>97.23</ele>
        <time>2016-01-12T09:24:03Z</time>
      </trkpt>
      <trkpt lat="48.60463" lon="1.98279">
        <ele>98.67</ele>
        <time>2016-01-12T09:24:06Z</time>
      </trkpt>
      <trkpt lat="48.60453" lon="1.98267">
        <ele>97.71</ele>
        <time>2016-01-12T09:24:15Z</time>
      </trkpt>
      <trkpt lat="48.60443" lon="1.98256">
        <ele>97.71</ele>
        <time>2016-01-12T09:24:25Z</time>
      </trkpt>
      <trkpt lat="48.60437" lon="1.98249">
        <ele>99.15</ele>
        <time>2016-01-12T09:24:30Z</time>
      </trkpt>
      <trkpt lat="48.60435" lon="1.98248">
        <ele>98.67</ele>
        <time>2016-01-12T09:24:32Z</time>
      </trkpt>
      <trkpt lat="48.60422" lon="1.98235">
        <ele>98.67</ele>
        <time>2016-01-12T09:24:41Z</time>
      </trkpt>
      <trkpt lat="48.60419" lon="1.98233">
        <ele>98.19</ele>
        <time>2016-01-12T09:24:44Z</time>
      </trkpt>
      <trkpt lat="48.60409" lon="1.98224">
        <ele>98.19</ele>
        <time>2016-01-12T09:24:52Z</time>
      </trkpt>
      <trkpt lat="48.60401" lon="1.98217">
        <ele>98.67</ele>
        <time>2016-01-12T09:24:59Z</time>
      </trkpt>
      <trkpt lat="48.60391" lon="1.98204">
        <ele>98.19</ele>
        <time>2016-01-12T09:25:07Z</time>
      </trkpt>
      <trkpt lat="48.60385" lon="1.98199">
        <ele>98.67</ele>
        <time>2016-01-12T09:25:12Z</time>
      </trkpt>
      <trkpt lat="48.60379" lon="1.98192">
        <ele>100.6</ele>
        <time>2016-01-12T09:25:19Z</time>
      </trkpt>
      <trkpt lat="48.60377" lon="1.9819">
        <ele>99.63</ele>
        <time>2016-01-12T09:25:21Z</time>
      </trkpt>
      <trkpt lat="48.60371" lon="1.98185">
        <ele>100.11</ele>
        <time>2016-01-12T09:25:28Z</time>
      </trkpt>
      <trkpt lat="48.60364" lon="1.98173">
        <ele>99.63</ele>
        <time>2016-01-12T09:25:35Z</time>
      </trkpt>
      <trkpt lat="48.60362" lon="1.98171">
        <ele>100.6</ele>
        <time>2016-01-12T09:25:37Z</time>
      </trkpt>
      <trkpt lat="48.60349" lon="1.98159">
        <ele>101.56</ele>
        <time>2016-01-12T09:25:46Z</time>
      </trkpt>
      <trkpt lat="48.60349" lon="1.98158">
        <ele>100.6</ele>
        <time>2016-01-12T09:25:47Z</time>
      </trkpt>
      <trkpt lat="48.60337" lon="1.98144">
        <ele>101.08</ele>
        <time>2016-01-12T09:25:57Z</time>
      </trkpt>
      <trkpt lat="48.60336" lon="1.98142">
        <ele>99.63</ele>
        <time>2016-01-12T09:25:59Z</time>
      </trkpt>
      <trkpt lat="48.60333" lon="1.98142">
        <ele>101.56</ele>
        <time>2016-01-12T09:26:01Z</time>
      </trkpt>
      <trkpt lat="48.6033" lon="1.98138">
        <ele>100.6</ele>
        <time>2016-01-12T09:26:04Z</time>
      </trkpt>
      <trkpt lat="48.60321" lon="1.98128">
        <ele>101.08</ele>
        <time>2016-01-12T09:26:12Z</time>
      </trkpt>
      <trkpt lat="48.60312" lon="1.98119">
        <ele>101.56</ele>
        <time>2016-01-12T09:26:20Z</time>
      </trkpt>
      <trkpt lat="48.60311" lon="1.98118">
        <ele>101.08</ele>
        <time>2016-01-12T09:26:21Z</time>
      </trkpt>
      <trkpt lat="48.60304" lon="1.98113">
        <ele>102.04</ele>
        <time>2016-01-12T09:26:27Z</time>
      </trkpt>
      <trkpt lat="48.60294" lon="1.981">
        <ele>102.04</ele>
        <time>2016-01-12T09:26:35Z</time>
      </trkpt>
      <trkpt lat="48.60284" lon="1.98091">
        <ele>102.52</ele>
        <time>2016-01-12T09:26:42Z</time>
      </trkpt>
      <trkpt lat="48.60283" lon="1.9809">
        <ele>102.52</ele>
        <time>2016-01-12T09:26:43Z</time>
      </trkpt>
      <trkpt lat="48.60275" lon="1.9808">
        <ele>103</ele>
        <time>2016-01-12T09:26:51Z</time>
      </trkpt>
      <trkpt lat="48.60265" lon="1.98071">
        <ele>102.04</ele>
        <time>2016-01-12T09:26:57Z</time>
      </trkpt>
      <trkpt lat="48.60261" lon="1.98066">
        <ele>103.48</ele>
        <time>2016-01-12T09:27:01Z</time>
      </trkpt>
      <trkpt lat="48.60258" lon="1.9806">
        <ele>103</ele>
        <time>2016-01-12T09:27:07Z</time>
      </trkpt>
      <trkpt lat="48.60256" lon="1.98058">
        <ele>102.52</ele>
        <time>2016-01-12T09:27:09Z</time>
      </trkpt>
      <trkpt lat="48.60249" lon="1.98052">
        <ele>104.44</ele>
        <time>2016-01-12T09:27:14Z</time>
      </trkpt>
      <trkpt lat="48.60237" lon="1.9804">
        <ele>105.4</ele>
        <time>2016-01-12T09:27:24Z</time>
      </trkpt>
      <trkpt lat="48.60231" lon="1.98033">
        <ele>103</ele>
        <time>2016-01-12T09:27:30Z</time>
      </trkpt>
      <trkpt lat="48.60221" lon="1.98023">
        <ele>103.96</ele>
        <time>2016-01-12T09:27:38Z</time>
      </trkpt>
      <trkpt lat="48.6022" lon="1.98021">
        <ele>103.96</ele>
        <time>2016-01-12T09:27:39Z</time>
      </trkpt>
      <trkpt lat="48.60215" lon="1.98017">
        <ele>104.92</ele>
        <time>2016-01-12T09:27:43Z</time>
      </trkpt>
      <trkpt lat="48.60209" lon="1.9801">
        <ele>105.4</ele>
        <time>2016-01-12T09:27:49Z</time>
      </trkpt>
      <trkpt lat="48.60196" lon="1.97998">
        <ele>105.88</ele>
        <time>2016-01-12T09:27:58Z</time>
      </trkpt>
      <trkpt lat="48.60193" lon="1.97995">
        <ele>105.4</ele>
        <time>2016-01-12T09:28:02Z</time>
      </trkpt>
      <trkpt lat="48.60187" lon="1.97989">
        <ele>106.36</ele>
        <time>2016-01-12T09:28:07Z</time>
      </trkpt>
      <trkpt lat="48.60178" lon="1.97978">
        <ele>106.36</ele>
        <time>2016-01-12T09:28:16Z</time>
      </trkpt>
      <trkpt lat="48.60173" lon="1.97972">
        <ele>105.88</ele>
        <time>2016-01-12T09:28:21Z</time>
      </trkpt>
      <trkpt lat="48.60164" lon="1.97962">
        <ele>105.88</ele>
        <time>2016-01-12T09:28:28Z</time>
      </trkpt>
      <trkpt lat="48.60156" lon="1.97955">
        <ele>105.88</ele>
        <time>2016-01-12T09:28:35Z</time>
      </trkpt>
      <trkpt lat="48.60148" lon="1.97947">
        <ele>106.84</ele>
        <time>2016-01-12T09:28:42Z</time>
      </trkpt>
      <trkpt lat="48.6014" lon="1.97935">
        <ele>105.88</ele>
        <time>2016-01-12T09:28:49Z</time>
      </trkpt>
      <trkpt lat="48.60131" lon="1.97926">
        <ele>105.88</ele>
        <time>2016-01-12T09:28:58Z</time>
      </trkpt>
      <trkpt lat="48.6013" lon="1.97925">
        <ele>107.32</ele>
        <time>2016-01-12T09:28:59Z</time>
      </trkpt>
      <trkpt lat="48.6012" lon="1.97914">
        <ele>106.36</ele>
        <time>2016-01-12T09:29:07Z</time>
      </trkpt>
      <trkpt lat="48.60118" lon="1.97912">
        <ele>107.32</ele>
        <time>2016-01-12T09:29:09Z</time>
      </trkpt>
      <trkpt lat="48.60111" lon="1.97905">
        <ele>106.84</ele>
        <time>2016-01-12T09:29:16Z</time>
      </trkpt>
      <trkpt lat="48.60104" lon="1.97897">
        <ele>107.81</ele>
        <time>2016-01-12T09:29:23Z</time>
      </trkpt>
      <trkpt lat="48.60094" lon="1.97886">
        <ele>107.81</ele>
        <time>2016-01-12T09:29:31Z</time>
      </trkpt>
      <trkpt lat="48.60086" lon="1.97874">
        <ele>106.84</ele>
        <time>2016-01-12T09:29:41Z</time>
      </trkpt>
      <trkpt lat="48.6008" lon="1.97869">
        <ele>107.81</ele>
        <time>2016-01-12T09:29:47Z</time>
      </trkpt>
      <trkpt lat="48.60079" lon="1.97868">
        <ele>107.32</ele>
        <time>2016-01-12T09:29:48Z</time>
      </trkpt>
      <trkpt lat="48.60067" lon="1.97856">
        <ele>107.32</ele>
        <time>2016-01-12T09:29:58Z</time>
      </trkpt>
      <trkpt lat="48.60064" lon="1.97853">
        <ele>106.36</ele>
        <time>2016-01-12T09:30:00Z</time>
      </trkpt>
      <trkpt lat="48.6006" lon="1.97847">
        <ele>107.81</ele>
        <time>2016-01-12T09:30:03Z</time>
      </trkpt>
      <trkpt lat="48.60055" lon="1.97838">
        <ele>108.77</ele>
        <time>2016-01-12T09:30:09Z</time>
      </trkpt>
      <trkpt lat="48.60044" lon="1.97829">
        <ele>108.77</ele>
        <time>2016-01-12T09:30:17Z</time>
      </trkpt>
      <trkpt lat="48.60037" lon="1.97821">
        <ele>107.32</ele>
        <time>2016-01-12T09:30:24Z</time>
      </trkpt>
      <trkpt lat="48.60029" lon="1.97814">
        <ele>109.25</ele>
        <time>2016-01-12T09:30:33Z</time>
      </trkpt>
      <trkpt lat="48.60017" lon="1.97799">
        <ele>108.77</ele>
        <time>2016-01-12T09:30:43Z</time>
      </trkpt>
      <trkpt lat="48.60009" lon="1.97792">
        <ele>110.21</ele>
        <time>2016-01-12T09:30:48Z</time>
      </trkpt>
      <trkpt lat="48.60002" lon="1.97782">
        <ele>110.69</ele>
        <time>2016-01-12T09:30:54Z</time>
      </trkpt>
      <trkpt lat="48.60001" lon="1.9777">
        <ele>109.73</ele>
        <time>2016-01-12T09:30:59Z</time>
      </trkpt>
      <trkpt lat="48.6" lon="1.97763">
        <ele>109.73</ele>
        <time>2016-01-12T09:31:04Z</time>
      </trkpt>
      <trkpt lat="48.59995" lon="1.97747">
        <ele>108.77</ele>
        <time>2016-01-12T09:31:12Z</time>
      </trkpt>
      <trkpt lat="48.59992" lon="1.97732">
        <ele>110.69</ele>
        <time>2016-01-12T09:31:21Z</time>
      </trkpt>
      <trkpt lat="48.59991" lon="1.97728">
        <ele>110.21</ele>
        <time>2016-01-12T09:31:24Z</time>
      </trkpt>
      <trkpt lat="48.59987" lon="1.97723">
        <ele>110.69</ele>
        <time>2016-01-12T09:31:27Z</time>
      </trkpt>
      <trkpt lat="48.59983" lon="1.97716">
        <ele>110.21</ele>
        <time>2016-01-12T09:31:31Z</time>
      </trkpt>
      <trkpt lat="48.59977" lon="1.97708">
        <ele>110.69</ele>
        <time>2016-01-12T09:31:35Z</time>
      </trkpt>
      <trkpt lat="48.5997" lon="1.97701">
        <ele>110.21</ele>
        <time>2016-01-12T09:31:39Z</time>
      </trkpt>
      <trkpt lat="48.59963" lon="1.9769">
        <ele>110.69</ele>
        <time>2016-01-12T09:31:45Z</time>
      </trkpt>
      <trkpt lat="48.59956" lon="1.97678">
        <ele>110.69</ele>
        <time>2016-01-12T09:31:52Z</time>
      </trkpt>
      <trkpt lat="48.59953" lon="1.97665">
        <ele>110.69</ele>
        <time>2016-01-12T09:32:00Z</time>
      </trkpt>
      <trkpt lat="48.59947" lon="1.97656">
        <ele>111.65</ele>
        <time>2016-01-12T09:32:08Z</time>
      </trkpt>
      <trkpt lat="48.59947" lon="1.97644">
        <ele>112.61</ele>
        <time>2016-01-12T09:32:15Z</time>
      </trkpt>
      <trkpt lat="48.5994" lon="1.97633">
        <ele>112.61</ele>
        <time>2016-01-12T09:32:23Z</time>
      </trkpt>
      <trkpt lat="48.59935" lon="1.97627">
        <ele>113.57</ele>
        <time>2016-01-12T09:32:28Z</time>
      </trkpt>
      <trkpt lat="48.59927" lon="1.97612">
        <ele>113.57</ele>
        <time>2016-01-12T09:32:36Z</time>
      </trkpt>
      <trkpt lat="48.5992" lon="1.97597">
        <ele>113.57</ele>
        <time>2016-01-12T09:32:44Z</time>
      </trkpt>
      <trkpt lat="48.59914" lon="1.97585">
        <ele>114.05</ele>
        <time>2016-01-12T09:32:53Z</time>
      </trkpt>
      <trkpt lat="48.59909" lon="1.97578">
        <ele>114.53</ele>
        <time>2016-01-12T09:33:01Z</time>
      </trkpt>
      <trkpt lat="48.59907" lon="1.97569">
        <ele>115.01</ele>
        <time>2016-01-12T09:33:08Z</time>
      </trkpt>
      <trkpt lat="48.59903" lon="1.97558">
        <ele>115.01</ele>
        <time>2016-01-12T09:33:14Z</time>
      </trkpt>
      <trkpt lat="48.59898" lon="1.97547">
        <ele>115.5</ele>
        <time>2016-01-12T09:33:18Z</time>
      </trkpt>
      <trkpt lat="48.59893" lon="1.97541">
        <ele>115.01</ele>
        <time>2016-01-12T09:33:21Z</time>
      </trkpt>
      <trkpt lat="48.59886" lon="1.97526">
        <ele>115.98</ele>
        <time>2016-01-12T09:33:27Z</time>
      </trkpt>
      <trkpt lat="48.59879" lon="1.9751">
        <ele>115.98</ele>
        <time>2016-01-12T09:33:34Z</time>
      </trkpt>
      <trkpt lat="48.59871" lon="1.97496">
        <ele>116.46</ele>
        <time>2016-01-12T09:33:41Z</time>
      </trkpt>
      <trkpt lat="48.59868" lon="1.97484">
        <ele>116.94</ele>
        <time>2016-01-12T09:33:48Z</time>
      </trkpt>
      <trkpt lat="48.59863" lon="1.97473">
        <ele>116.94</ele>
        <time>2016-01-12T09:33:55Z</time>
      </trkpt>
      <trkpt lat="48.59857" lon="1.9746">
        <ele>118.38</ele>
        <time>2016-01-12T09:34:02Z</time>
      </trkpt>
      <trkpt lat="48.59849" lon="1.97446">
        <ele>118.38</ele>
        <time>2016-01-12T09:34:10Z</time>
      </trkpt>
      <trkpt lat="48.59843" lon="1.97438">
        <ele>118.38</ele>
        <time>2016-01-12T09:34:15Z</time>
      </trkpt>
      <trkpt lat="48.59838" lon="1.97427">
        <ele>118.38</ele>
        <time>2016-01-12T09:34:22Z</time>
      </trkpt>
      <trkpt lat="48.59836" lon="1.9742">
        <ele>118.86</ele>
        <time>2016-01-12T09:34:26Z</time>
      </trkpt>
      <trkpt lat="48.59831" lon="1.97412">
        <ele>119.34</ele>
        <time>2016-01-12T09:34:31Z</time>
      </trkpt>
      <trkpt lat="48.59827" lon="1.97405">
        <ele>119.34</ele>
        <time>2016-01-12T09:34:35Z</time>
      </trkpt>
      <trkpt lat="48.59822" lon="1.97392">
        <ele>119.82</ele>
        <time>2016-01-12T09:34:42Z</time>
      </trkpt>
      <trkpt lat="48.5982" lon="1.97385">
        <ele>120.3</ele>
        <time>2016-01-12T09:34:45Z</time>
      </trkpt>
      <trkpt lat="48.59814" lon="1.97373">
        <ele>120.78</ele>
        <time>2016-01-12T09:34:53Z</time>
      </trkpt>
      <trkpt lat="48.59811" lon="1.97363">
        <ele>121.74</ele>
        <time>2016-01-12T09:34:59Z</time>
      </trkpt>
      <trkpt lat="48.59808" lon="1.97359">
        <ele>121.26</ele>
        <time>2016-01-12T09:35:01Z</time>
      </trkpt>
      <trkpt lat="48.59801" lon="1.97347">
        <ele>121.26</ele>
        <time>2016-01-12T09:35:08Z</time>
      </trkpt>
      <trkpt lat="48.59794" lon="1.97335">
        <ele>121.74</ele>
        <time>2016-01-12T09:35:15Z</time>
      </trkpt>
      <trkpt lat="48.59789" lon="1.97322">
        <ele>122.22</ele>
        <time>2016-01-12T09:35:23Z</time>
      </trkpt>
      <trkpt lat="48.59788" lon="1.97316">
        <ele>122.71</ele>
        <time>2016-01-12T09:35:28Z</time>
      </trkpt>
      <trkpt lat="48.59788" lon="1.97314">
        <ele>122.71</ele>
        <time>2016-01-12T09:35:29Z</time>
      </trkpt>
      <trkpt lat="48.59782" lon="1.97301">
        <ele>122.71</ele>
        <time>2016-01-12T09:35:36Z</time>
      </trkpt>
      <trkpt lat="48.5978" lon="1.97295">
        <ele>123.19</ele>
        <time>2016-01-12T09:35:39Z</time>
      </trkpt>
      <trkpt lat="48.59771" lon="1.9728">
        <ele>123.67</ele>
        <time>2016-01-12T09:35:48Z</time>
      </trkpt>
      <trkpt lat="48.59766" lon="1.97267">
        <ele>124.63</ele>
        <time>2016-01-12T09:35:55Z</time>
      </trkpt>
      <trkpt lat="48.59765" lon="1.97259">
        <ele>125.11</ele>
        <time>2016-01-12T09:36:03Z</time>
      </trkpt>
      <trkpt lat="48.59762" lon="1.97254">
        <ele>125.11</ele>
        <time>2016-01-12T09:36:06Z</time>
      </trkpt>
      <trkpt lat="48.59751" lon="1.97237">
        <ele>125.11</ele>
        <time>2016-01-12T09:36:14Z</time>
      </trkpt>
      <trkpt lat="48.59749" lon="1.97235">
        <ele>124.63</ele>
        <time>2016-01-12T09:36:28Z</time>
      </trkpt>
      <trkpt lat="48.59749" lon="1.97235">
        <ele>126.07</ele>
        <time>2016-01-12T09:36:39Z</time>
      </trkpt>
      <trkpt lat="48.5975" lon="1.97234">
        <ele>126.07</ele>
        <time>2016-01-12T09:36:50Z</time>
      </trkpt>
      <trkpt lat="48.5975" lon="1.97233">
        <ele>125.11</ele>
        <time>2016-01-12T09:36:58Z</time>
      </trkpt>
      <trkpt lat="48.59751" lon="1.97235">
        <ele>125.11</ele>
        <time>2016-01-12T09:37:05Z</time>
      </trkpt>
      <trkpt lat="48.59751" lon="1.97235">
        <ele>125.59</ele>
        <time>2016-01-12T09:37:19Z</time>
      </trkpt>
      <trkpt lat="48.59752" lon="1.97235">
        <ele>124.63</ele>
        <time>2016-01-12T09:37:33Z</time>
      </trkpt>
      <trkpt lat="48.59752" lon="1.97235">
        <ele>125.11</ele>
        <time>2016-01-12T09:37:46Z</time>
      </trkpt>
      <trkpt lat="48.59751" lon="1.97236">
        <ele>125.11</ele>
        <time>2016-01-12T09:38:00Z</time>
      </trkpt>
      <trkpt lat="48.59751" lon="1.97238">
        <ele>125.11</ele>
        <time>2016-01-12T09:38:14Z</time>
      </trkpt>
      <trkpt lat="48.59751" lon="1.97238">
        <ele>125.59</ele>
        <time>2016-01-12T09:38:27Z</time>
      </trkpt>
      <trkpt lat="48.59751" lon="1.97238">
        <ele>125.11</ele>
        <time>2016-01-12T09:38:39Z</time>
      </trkpt>
      <trkpt lat="48.59751" lon="1.97238">
        <ele>125.59</ele>
        <time>2016-01-12T09:38:58Z</time>
      </trkpt>
      <trkpt lat="48.5975" lon="1.97237">
        <ele>125.59</ele>
        <time>2016-01-12T09:39:09Z</time>
      </trkpt>
      <trkpt lat="48.59751" lon="1.97236">
        <ele>125.59</ele>
        <time>2016-01-12T09:39:19Z</time>
      </trkpt>
      <trkpt lat="48.59751" lon="1.97236">
        <ele>125.11</ele>
        <time>2016-01-12T09:39:30Z</time>
      </trkpt>
      <trkpt lat="48.59751" lon="1.97236">
        <ele>126.07</ele>
        <time>2016-01-12T09:39:43Z</time>
      </trkpt>
      <trkpt lat="48.59751" lon="1.97236">
        <ele>125.11</ele>
        <time>2016-01-12T09:39:54Z</time>
      </trkpt>
      <trkpt lat="48.59752" lon="1.97234">
        <ele>126.07</ele>
        <time>2016-01-12T09:40:03Z</time>
      </trkpt>
      <trkpt lat="48.59752" lon="1.97233">
        <ele>125.59</ele>
        <time>2016-01-12T09:40:04Z</time>
      </trkpt>
      <trkpt lat="48.59748" lon="1.97221">
        <ele>126.07</ele>
        <time>2016-01-12T09:40:13Z</time>
      </trkpt>
      <trkpt lat="48.59747" lon="1.97217">
        <ele>125.11</ele>
        <time>2016-01-12T09:40:15Z</time>
      </trkpt>
      <trkpt lat="48.59745" lon="1.97208">
        <ele>127.03</ele>
        <time>2016-01-12T09:40:19Z</time>
      </trkpt>
      <trkpt lat="48.59742" lon="1.97203">
        <ele>126.07</ele>
        <time>2016-01-12T09:40:21Z</time>
      </trkpt>
      <trkpt lat="48.59738" lon="1.97187">
        <ele>126.55</ele>
        <time>2016-01-12T09:40:29Z</time>
      </trkpt>
      <trkpt lat="48.59732" lon="1.97169">
        <ele>127.51</ele>
        <time>2016-01-12T09:40:38Z</time>
      </trkpt>
      <trkpt lat="48.59725" lon="1.97152">
        <ele>127.51</ele>
        <time>2016-01-12T09:40:46Z</time>
      </trkpt>
      <trkpt lat="48.59719" lon="1.97134">
        <ele>127.51</ele>
        <time>2016-01-12T09:40:55Z</time>
      </trkpt>
      <trkpt lat="48.59719" lon="1.9712">
        <ele>127.51</ele>
        <time>2016-01-12T09:41:02Z</time>
      </trkpt>
      <trkpt lat="48.59719" lon="1.97118">
        <ele>127.51</ele>
        <time>2016-01-12T09:41:03Z</time>
      </trkpt>
      <trkpt lat="48.59718" lon="1.97107">
        <ele>129.43</ele>
        <time>2016-01-12T09:41:09Z</time>
      </trkpt>
      <trkpt lat="48.59715" lon="1.97101">
        <ele>127.51</ele>
        <time>2016-01-12T09:41:12Z</time>
      </trkpt>
      <trkpt lat="48.59704" lon="1.97083">
        <ele>127.51</ele>
        <time>2016-01-12T09:41:22Z</time>
      </trkpt>
      <trkpt lat="48.59701" lon="1.97078">
        <ele>129.43</ele>
        <time>2016-01-12T09:41:25Z</time>
      </trkpt>
      <trkpt lat="48.59691" lon="1.97063">
        <ele>128.47</ele>
        <time>2016-01-12T09:41:35Z</time>
      </trkpt>
      <trkpt lat="48.59679" lon="1.97048">
        <ele>128.95</ele>
        <time>2016-01-12T09:41:44Z</time>
      </trkpt>
      <trkpt lat="48.59677" lon="1.97045">
        <ele>128.47</ele>
        <time>2016-01-12T09:41:46Z</time>
      </trkpt>
      <trkpt lat="48.59674" lon="1.97036">
        <ele>128.47</ele>
        <time>2016-01-12T09:41:50Z</time>
      </trkpt>
      <trkpt lat="48.59673" lon="1.97028">
        <ele>128.95</ele>
        <time>2016-01-12T09:41:54Z</time>
      </trkpt>
      <trkpt lat="48.59679" lon="1.97016">
        <ele>128.95</ele>
        <time>2016-01-12T09:42:02Z</time>
      </trkpt>
      <trkpt lat="48.59684" lon="1.97006">
        <ele>129.43</ele>
        <time>2016-01-12T09:42:10Z</time>
      </trkpt>
      <trkpt lat="48.59686" lon="1.96997">
        <ele>129.92</ele>
        <time>2016-01-12T09:42:16Z</time>
      </trkpt>
      <trkpt lat="48.59695" lon="1.96985">
        <ele>130.88</ele>
        <time>2016-01-12T09:42:26Z</time>
      </trkpt>
      <trkpt lat="48.59701" lon="1.96972">
        <ele>131.36</ele>
        <time>2016-01-12T09:42:31Z</time>
      </trkpt>
      <trkpt lat="48.59707" lon="1.96964">
        <ele>132.32</ele>
        <time>2016-01-12T09:42:36Z</time>
      </trkpt>
      <trkpt lat="48.59713" lon="1.96949">
        <ele>132.8</ele>
        <time>2016-01-12T09:42:43Z</time>
      </trkpt>
      <trkpt lat="48.59713" lon="1.96936">
        <ele>132.32</ele>
        <time>2016-01-12T09:42:48Z</time>
      </trkpt>
      <trkpt lat="48.59717" lon="1.96929">
        <ele>133.76</ele>
        <time>2016-01-12T09:42:53Z</time>
      </trkpt>
      <trkpt lat="48.59722" lon="1.96919">
        <ele>134.24</ele>
        <time>2016-01-12T09:43:00Z</time>
      </trkpt>
      <trkpt lat="48.59733" lon="1.96912">
        <ele>134.72</ele>
        <time>2016-01-12T09:43:09Z</time>
      </trkpt>
      <trkpt lat="48.59738" lon="1.96911">
        <ele>134.72</ele>
        <time>2016-01-12T09:43:16Z</time>
      </trkpt>
      <trkpt lat="48.5975" lon="1.96923">
        <ele>135.68</ele>
        <time>2016-01-12T09:43:25Z</time>
      </trkpt>
      <trkpt lat="48.5976" lon="1.96932">
        <ele>134.24</ele>
        <time>2016-01-12T09:43:32Z</time>
      </trkpt>
      <trkpt lat="48.59775" lon="1.96946">
        <ele>134.24</ele>
        <time>2016-01-12T09:43:41Z</time>
      </trkpt>
      <trkpt lat="48.59786" lon="1.96956">
        <ele>133.28</ele>
        <time>2016-01-12T09:43:50Z</time>
      </trkpt>
      <trkpt lat="48.59798" lon="1.96968">
        <ele>134.24</ele>
        <time>2016-01-12T09:43:58Z</time>
      </trkpt>
      <trkpt lat="48.59799" lon="1.96969">
        <ele>133.76</ele>
        <time>2016-01-12T09:43:59Z</time>
      </trkpt>
      <trkpt lat="48.59802" lon="1.96975">
        <ele>132.8</ele>
        <time>2016-01-12T09:44:02Z</time>
      </trkpt>
      <trkpt lat="48.59809" lon="1.96982">
        <ele>132.32</ele>
        <time>2016-01-12T09:44:07Z</time>
      </trkpt>
      <trkpt lat="48.59818" lon="1.96987">
        <ele>132.32</ele>
        <time>2016-01-12T09:44:13Z</time>
      </trkpt>
      <trkpt lat="48.5982" lon="1.96989">
        <ele>131.84</ele>
        <time>2016-01-12T09:44:15Z</time>
      </trkpt>
      <trkpt lat="48.59836" lon="1.97005">
        <ele>132.32</ele>
        <time>2016-01-12T09:44:26Z</time>
      </trkpt>
      <trkpt lat="48.59846" lon="1.97018">
        <ele>133.76</ele>
        <time>2016-01-12T09:44:35Z</time>
      </trkpt>
      <trkpt lat="48.59852" lon="1.97025">
        <ele>132.8</ele>
        <time>2016-01-12T09:44:39Z</time>
      </trkpt>
      <trkpt lat="48.59856" lon="1.97028">
        <ele>132.8</ele>
        <time>2016-01-12T09:44:42Z</time>
      </trkpt>
      <trkpt lat="48.59867" lon="1.97037">
        <ele>132.8</ele>
        <time>2016-01-12T09:44:50Z</time>
      </trkpt>
      <trkpt lat="48.59879" lon="1.97049">
        <ele>133.28</ele>
        <time>2016-01-12T09:45:01Z</time>
      </trkpt>
      <trkpt lat="48.59891" lon="1.97061">
        <ele>131.84</ele>
        <time>2016-01-12T09:45:09Z</time>
      </trkpt>
      <trkpt lat="48.59896" lon="1.97065">
        <ele>132.8</ele>
        <time>2016-01-12T09:45:12Z</time>
      </trkpt>
      <trkpt lat="48.59906" lon="1.97076">
        <ele>132.32</ele>
        <time>2016-01-12T09:45:20Z</time>
      </trkpt>
      <trkpt lat="48.59916" lon="1.97087">
        <ele>132.32</ele>
        <time>2016-01-12T09:45:28Z</time>
      </trkpt>
      <trkpt lat="48.59928" lon="1.971">
        <ele>132.32</ele>
        <time>2016-01-12T09:45:37Z</time>
      </trkpt>
      <trkpt lat="48.59941" lon="1.97111">
        <ele>131.84</ele>
        <time>2016-01-12T09:45:47Z</time>
      </trkpt>
      <trkpt lat="48.59951" lon="1.97121">
        <ele>131.36</ele>
        <time>2016-01-12T09:45:55Z</time>
      </trkpt>
      <trkpt lat="48.59957" lon="1.97127">
        <ele>131.84</ele>
        <time>2016-01-12T09:46:00Z</time>
      </trkpt>
      <trkpt lat="48.59967" lon="1.97135">
        <ele>131.84</ele>
        <time>2016-01-12T09:46:09Z</time>
      </trkpt>
      <trkpt lat="48.59981" lon="1.97151">
        <ele>131.84</ele>
        <time>2016-01-12T09:46:20Z</time>
      </trkpt>
      <trkpt lat="48.5999" lon="1.9716">
        <ele>130.88</ele>
        <time>2016-01-12T09:46:28Z</time>
      </trkpt>
      <trkpt lat="48.59999" lon="1.97172">
        <ele>129.92</ele>
        <time>2016-01-12T09:46:37Z</time>
      </trkpt>
      <trkpt lat="48.6001" lon="1.97179">
        <ele>129.43</ele>
        <time>2016-01-12T09:46:45Z</time>
      </trkpt>
      <trkpt lat="48.60019" lon="1.97188">
        <ele>130.4</ele>
        <time>2016-01-12T09:46:51Z</time>
      </trkpt>
      <trkpt lat="48.6003" lon="1.972">
        <ele>130.4</ele>
        <time>2016-01-12T09:47:00Z</time>
      </trkpt>
      <trkpt lat="48.60035" lon="1.97206">
        <ele>131.84</ele>
        <time>2016-01-12T09:47:05Z</time>
      </trkpt>
      <trkpt lat="48.60046" lon="1.9722">
        <ele>132.8</ele>
        <time>2016-01-12T09:47:15Z</time>
      </trkpt>
      <trkpt lat="48.60053" lon="1.97226">
        <ele>134.72</ele>
        <time>2016-01-12T09:47:21Z</time>
      </trkpt>
      <trkpt lat="48.6006" lon="1.97234">
        <ele>135.68</ele>
        <time>2016-01-12T09:47:28Z</time>
      </trkpt>
      <trkpt lat="48.60061" lon="1.97237">
        <ele>135.2</ele>
        <time>2016-01-12T09:47:30Z</time>
      </trkpt>
      <trkpt lat="48.60066" lon="1.97249">
        <ele>135.2</ele>
        <time>2016-01-12T09:47:38Z</time>
      </trkpt>
      <trkpt lat="48.6007" lon="1.97252">
        <ele>134.72</ele>
        <time>2016-01-12T09:47:41Z</time>
      </trkpt>
      <trkpt lat="48.60081" lon="1.97265">
        <ele>135.2</ele>
        <time>2016-01-12T09:47:49Z</time>
      </trkpt>
      <trkpt lat="48.60083" lon="1.97268">
        <ele>134.72</ele>
        <time>2016-01-12T09:47:51Z</time>
      </trkpt>
      <trkpt lat="48.6009" lon="1.97269">
        <ele>136.16</ele>
        <time>2016-01-12T09:47:56Z</time>
      </trkpt>
      <trkpt lat="48.60095" lon="1.97273">
        <ele>135.2</ele>
        <time>2016-01-12T09:48:00Z</time>
      </trkpt>
      <trkpt lat="48.60101" lon="1.97277">
        <ele>136.16</ele>
        <time>2016-01-12T09:48:04Z</time>
      </trkpt>
      <trkpt lat="48.60112" lon="1.9729">
        <ele>136.16</ele>
        <time>2016-01-12T09:48:14Z</time>
      </trkpt>
      <trkpt lat="48.60121" lon="1.97295">
        <ele>137.13</ele>
        <time>2016-01-12T09:48:20Z</time>
      </trkpt>
      <trkpt lat="48.60126" lon="1.97301">
        <ele>135.68</ele>
        <time>2016-01-12T09:48:24Z</time>
      </trkpt>
      <trkpt lat="48.60139" lon="1.97309">
        <ele>135.68</ele>
        <time>2016-01-12T09:48:33Z</time>
      </trkpt>
      <trkpt lat="48.60148" lon="1.9732">
        <ele>136.16</ele>
        <time>2016-01-12T09:48:41Z</time>
      </trkpt>
      <trkpt lat="48.60157" lon="1.97328">
        <ele>135.68</ele>
        <time>2016-01-12T09:48:49Z</time>
      </trkpt>
      <trkpt lat="48.60171" lon="1.97342">
        <ele>135.68</ele>
        <time>2016-01-12T09:49:00Z</time>
      </trkpt>
      <trkpt lat="48.6018" lon="1.97352">
        <ele>135.68</ele>
        <time>2016-01-12T09:49:08Z</time>
      </trkpt>
      <trkpt lat="48.60181" lon="1.97353">
        <ele>135.68</ele>
        <time>2016-01-12T09:49:09Z</time>
      </trkpt>
      <trkpt lat="48.60192" lon="1.97366">
        <ele>134.72</ele>
        <time>2016-01-12T09:49:19Z</time>
      </trkpt>
      <trkpt lat="48.60203" lon="1.97376">
        <ele>133.76</ele>
        <time>2016-01-12T09:49:27Z</time>
      </trkpt>
      <trkpt lat="48.60212" lon="1.97383">
        <ele>133.28</ele>
        <time>2016-01-12T09:49:34Z</time>
      </trkpt>
      <trkpt lat="48.60222" lon="1.97391">
        <ele>132.8</ele>
        <time>2016-01-12T09:49:43Z</time>
      </trkpt>
      <trkpt lat="48.6023" lon="1.97402">
        <ele>131.36</ele>
        <time>2016-01-12T09:49:52Z</time>
      </trkpt>
      <trkpt lat="48.60233" lon="1.97404">
        <ele>130.88</ele>
        <time>2016-01-12T09:49:54Z</time>
      </trkpt>
      <trkpt lat="48.60236" lon="1.97407">
        <ele>130.4</ele>
        <time>2016-01-12T09:49:56Z</time>
      </trkpt>
      <trkpt lat="48.60249" lon="1.97417">
        <ele>128.95</ele>
        <time>2016-01-12T09:50:07Z</time>
      </trkpt>
      <trkpt lat="48.6026" lon="1.97424">
        <ele>127.03</ele>
        <time>2016-01-12T09:50:17Z</time>
      </trkpt>
      <trkpt lat="48.60268" lon="1.97432">
        <ele>124.63</ele>
        <time>2016-01-12T09:50:26Z</time>
      </trkpt>
      <trkpt lat="48.60275" lon="1.97439">
        <ele>122.22</ele>
        <time>2016-01-12T09:50:35Z</time>
      </trkpt>
      <trkpt lat="48.60284" lon="1.97449">
        <ele>120.3</ele>
        <time>2016-01-12T09:50:44Z</time>
      </trkpt>
      <trkpt lat="48.60298" lon="1.97458">
        <ele>117.9</ele>
        <time>2016-01-12T09:50:54Z</time>
      </trkpt>
      <trkpt lat="48.60306" lon="1.97473">
        <ele>115.01</ele>
        <time>2016-01-12T09:51:04Z</time>
      </trkpt>
      <trkpt lat="48.60315" lon="1.97481">
        <ele>114.05</ele>
        <time>2016-01-12T09:51:12Z</time>
      </trkpt>
      <trkpt lat="48.60322" lon="1.97494">
        <ele>112.13</ele>
        <time>2016-01-12T09:51:21Z</time>
      </trkpt>
      <trkpt lat="48.60333" lon="1.97504">
        <ele>111.17</ele>
        <time>2016-01-12T09:51:29Z</time>
      </trkpt>
      <trkpt lat="48.60338" lon="1.97512">
        <ele>111.65</ele>
        <time>2016-01-12T09:51:34Z</time>
      </trkpt>
      <trkpt lat="48.60347" lon="1.97521">
        <ele>111.17</ele>
        <time>2016-01-12T09:51:42Z</time>
      </trkpt>
      <trkpt lat="48.60359" lon="1.97533">
        <ele>109.73</ele>
        <time>2016-01-12T09:51:52Z</time>
      </trkpt>
      <trkpt lat="48.60363" lon="1.97537">
        <ele>109.25</ele>
        <time>2016-01-12T09:51:55Z</time>
      </trkpt>
      <trkpt lat="48.60378" lon="1.97553">
        <ele>107.81</ele>
        <time>2016-01-12T09:52:06Z</time>
      </trkpt>
      <trkpt lat="48.60388" lon="1.97563">
        <ele>107.81</ele>
        <time>2016-01-12T09:52:15Z</time>
      </trkpt>
      <trkpt lat="48.60395" lon="1.97573">
        <ele>107.32</ele>
        <time>2016-01-12T09:52:22Z</time>
      </trkpt>
      <trkpt lat="48.60398" lon="1.97577">
        <ele>107.32</ele>
        <time>2016-01-12T09:52:26Z</time>
      </trkpt>
      <trkpt lat="48.60404" lon="1.9758">
        <ele>107.32</ele>
        <time>2016-01-12T09:52:30Z</time>
      </trkpt>
      <trkpt lat="48.60418" lon="1.97592">
        <ele>106.84</ele>
        <time>2016-01-12T09:52:41Z</time>
      </trkpt>
      <trkpt lat="48.60425" lon="1.97599">
        <ele>107.32</ele>
        <time>2016-01-12T09:52:45Z</time>
      </trkpt>
      <trkpt lat="48.60442" lon="1.97608">
        <ele>106.36</ele>
        <time>2016-01-12T09:52:56Z</time>
      </trkpt>
      <trkpt lat="48.60452" lon="1.97619">
        <ele>106.36</ele>
        <time>2016-01-12T09:53:04Z</time>
      </trkpt>
      <trkpt lat="48.60464" lon="1.97633">
        <ele>105.88</ele>
        <time>2016-01-12T09:53:15Z</time>
      </trkpt>
      <trkpt lat="48.60475" lon="1.97645">
        <ele>104.44</ele>
        <time>2016-01-12T09:53:24Z</time>
      </trkpt>
      <trkpt lat="48.60484" lon="1.97653">
        <ele>104.44</ele>
        <time>2016-01-12T09:53:32Z</time>
      </trkpt>
      <trkpt lat="48.60497" lon="1.97662">
        <ele>103.96</ele>
        <time>2016-01-12T09:53:41Z</time>
      </trkpt>
      <trkpt lat="48.605" lon="1.97668">
        <ele>104.44</ele>
        <time>2016-01-12T09:53:45Z</time>
      </trkpt>
      <trkpt lat="48.60515" lon="1.97683">
        <ele>103.96</ele>
        <time>2016-01-12T09:53:56Z</time>
      </trkpt>
      <trkpt lat="48.60526" lon="1.97696">
        <ele>103</ele>
        <time>2016-01-12T09:54:05Z</time>
      </trkpt>
      <trkpt lat="48.60537" lon="1.97704">
        <ele>102.04</ele>
        <time>2016-01-12T09:54:13Z</time>
      </trkpt>
      <trkpt lat="48.60542" lon="1.9771">
        <ele>101.56</ele>
        <time>2016-01-12T09:54:19Z</time>
      </trkpt>
      <trkpt lat="48.60549" lon="1.97719">
        <ele>101.08</ele>
        <time>2016-01-12T09:54:26Z</time>
      </trkpt>
      <trkpt lat="48.60555" lon="1.97727">
        <ele>100.6</ele>
        <time>2016-01-12T09:54:32Z</time>
      </trkpt>
      <trkpt lat="48.60564" lon="1.97738">
        <ele>100.6</ele>
        <time>2016-01-12T09:54:38Z</time>
      </trkpt>
      <trkpt lat="48.60572" lon="1.97745">
        <ele>100.6</ele>
        <time>2016-01-12T09:54:45Z</time>
      </trkpt>
      <trkpt lat="48.60582" lon="1.97756">
        <ele>99.63</ele>
        <time>2016-01-12T09:54:53Z</time>
      </trkpt>
      <trkpt lat="48.60584" lon="1.97759">
        <ele>99.15</ele>
        <time>2016-01-12T09:54:56Z</time>
      </trkpt>
      <trkpt lat="48.60594" lon="1.97768">
        <ele>99.15</ele>
        <time>2016-01-12T09:55:03Z</time>
      </trkpt>
      <trkpt lat="48.60603" lon="1.97776">
        <ele>98.67</ele>
        <time>2016-01-12T09:55:10Z</time>
      </trkpt>
      <trkpt lat="48.6061" lon="1.97789">
        <ele>98.19</ele>
        <time>2016-01-12T09:55:18Z</time>
      </trkpt>
      <trkpt lat="48.60619" lon="1.97798">
        <ele>98.67</ele>
        <time>2016-01-12T09:55:27Z</time>
      </trkpt>
      <trkpt lat="48.6063" lon="1.97809">
        <ele>98.19</ele>
        <time>2016-01-12T09:55:36Z</time>
      </trkpt>
      <trkpt lat="48.60644" lon="1.97818">
        <ele>97.71</ele>
        <time>2016-01-12T09:55:45Z</time>
      </trkpt>
      <trkpt lat="48.60655" lon="1.9783">
        <ele>97.71</ele>
        <time>2016-01-12T09:55:54Z</time>
      </trkpt>
      <trkpt lat="48.60659" lon="1.97829">
        <ele>98.67</ele>
        <time>2016-01-12T09:56:04Z</time>
      </trkpt>
      <trkpt lat="48.60659" lon="1.97833">
        <ele>97.71</ele>
        <time>2016-01-12T09:56:12Z</time>
      </trkpt>
      <trkpt lat="48.60658" lon="1.97835">
        <ele>97.71</ele>
        <time>2016-01-12T09:56:19Z</time>
      </trkpt>
      <trkpt lat="48.60656" lon="1.97836">
        <ele>97.23</ele>
        <time>2016-01-12T09:56:31Z</time>
      </trkpt>
      <trkpt lat="48.60656" lon="1.97836">
        <ele>97.71</ele>
        <time>2016-01-12T09:56:35Z</time>
      </trkpt>
      <trkpt lat="48.60663" lon="1.97848">
        <ele>97.23</ele>
        <time>2016-01-12T09:56:44Z</time>
      </trkpt>
      <trkpt lat="48.60679" lon="1.97858">
        <ele>97.23</ele>
        <time>2016-01-12T09:56:56Z</time>
      </trkpt>
      <trkpt lat="48.60687" lon="1.97859">
        <ele>97.23</ele>
        <time>2016-01-12T09:57:06Z</time>
      </trkpt>
      <trkpt lat="48.60687" lon="1.97858">
        <ele>97.23</ele>
        <time>2016-01-12T09:57:19Z</time>
      </trkpt>
      <trkpt lat="48.6068" lon="1.97853">
        <ele>97.71</ele>
        <time>2016-01-12T09:57:27Z</time>
      </trkpt>
      <trkpt lat="48.6067" lon="1.97846">
        <ele>96.75</ele>
        <time>2016-01-12T09:57:35Z</time>
      </trkpt>
      <trkpt lat="48.60665" lon="1.97842">
        <ele>97.23</ele>
        <time>2016-01-12T09:57:42Z</time>
      </trkpt>
      <trkpt lat="48.60663" lon="1.97841">
        <ele>96.75</ele>
        <time>2016-01-12T09:57:46Z</time>
      </trkpt>
      <trkpt lat="48.60658" lon="1.97836">
        <ele>97.71</ele>
        <time>2016-01-12T09:57:55Z</time>
      </trkpt>
      <trkpt lat="48.60656" lon="1.97836">
        <ele>97.23</ele>
        <time>2016-01-12T09:58:06Z</time>
      </trkpt>
      <trkpt lat="48.60656" lon="1.97835">
        <ele>97.23</ele>
        <time>2016-01-12T09:58:19Z</time>
      </trkpt>
      <trkpt lat="48.60656" lon="1.97836">
        <ele>97.71</ele>
        <time>2016-01-12T09:58:33Z</time>
      </trkpt>
      <trkpt lat="48.60659" lon="1.97844">
        <ele>97.23</ele>
        <time>2016-01-12T09:58:42Z</time>
      </trkpt>
      <trkpt lat="48.6066" lon="1.97848">
        <ele>97.23</ele>
        <time>2016-01-12T09:58:45Z</time>
      </trkpt>
      <trkpt lat="48.60674" lon="1.97859">
        <ele>97.23</ele>
        <time>2016-01-12T09:58:56Z</time>
      </trkpt>
      <trkpt lat="48.60692" lon="1.97871">
        <ele>96.27</ele>
        <time>2016-01-12T09:59:07Z</time>
      </trkpt>
      <trkpt lat="48.60701" lon="1.9788">
        <ele>96.75</ele>
        <time>2016-01-12T09:59:15Z</time>
      </trkpt>
      <trkpt lat="48.60711" lon="1.97886">
        <ele>96.27</ele>
        <time>2016-01-12T09:59:22Z</time>
      </trkpt>
      <trkpt lat="48.60715" lon="1.97893">
        <ele>96.75</ele>
        <time>2016-01-12T09:59:27Z</time>
      </trkpt>
      <trkpt lat="48.60725" lon="1.97901">
        <ele>96.27</ele>
        <time>2016-01-12T09:59:35Z</time>
      </trkpt>
      <trkpt lat="48.60731" lon="1.97905">
        <ele>96.27</ele>
        <time>2016-01-12T09:59:43Z</time>
      </trkpt>
      <trkpt lat="48.60739" lon="1.97914">
        <ele>95.79</ele>
        <time>2016-01-12T09:59:51Z</time>
      </trkpt>
      <trkpt lat="48.60743" lon="1.97921">
        <ele>96.27</ele>
        <time>2016-01-12T09:59:56Z</time>
      </trkpt>
      <trkpt lat="48.60757" lon="1.97932">
        <ele>95.79</ele>
        <time>2016-01-12T10:00:06Z</time>
      </trkpt>
      <trkpt lat="48.60769" lon="1.97945">
        <ele>95.31</ele>
        <time>2016-01-12T10:00:17Z</time>
      </trkpt>
      <trkpt lat="48.60783" lon="1.97955">
        <ele>94.83</ele>
        <time>2016-01-12T10:00:27Z</time>
      </trkpt>
      <trkpt lat="48.60797" lon="1.97957">
        <ele>93.87</ele>
        <time>2016-01-12T10:00:37Z</time>
      </trkpt>
      <trkpt lat="48.60805" lon="1.9796">
        <ele>93.87</ele>
        <time>2016-01-12T10:00:44Z</time>
      </trkpt>
      <trkpt lat="48.60808" lon="1.97958">
        <ele>93.39</ele>
        <time>2016-01-12T10:00:47Z</time>
      </trkpt>
      <trkpt lat="48.60813" lon="1.97953">
        <ele>93.87</ele>
        <time>2016-01-12T10:00:52Z</time>
      </trkpt>
      <trkpt lat="48.60817" lon="1.97936">
        <ele>93.87</ele>
        <time>2016-01-12T10:01:02Z</time>
      </trkpt>
      <trkpt lat="48.6082" lon="1.97914">
        <ele>92.9</ele>
        <time>2016-01-12T10:01:12Z</time>
      </trkpt>
      <trkpt lat="48.60819" lon="1.97902">
        <ele>93.39</ele>
        <time>2016-01-12T10:01:17Z</time>
      </trkpt>
      <trkpt lat="48.60822" lon="1.97885">
        <ele>93.39</ele>
        <time>2016-01-12T10:01:25Z</time>
      </trkpt>
      <trkpt lat="48.60825" lon="1.9787">
        <ele>93.39</ele>
        <time>2016-01-12T10:01:32Z</time>
      </trkpt>
      <trkpt lat="48.60828" lon="1.9785">
        <ele>93.39</ele>
        <time>2016-01-12T10:01:42Z</time>
      </trkpt>
      <trkpt lat="48.60827" lon="1.97842">
        <ele>92.9</ele>
        <time>2016-01-12T10:01:45Z</time>
      </trkpt>
      <trkpt lat="48.60829" lon="1.97829">
        <ele>93.87</ele>
        <time>2016-01-12T10:01:50Z</time>
      </trkpt>
      <trkpt lat="48.60829" lon="1.97823">
        <ele>92.9</ele>
        <time>2016-01-12T10:01:54Z</time>
      </trkpt>
      <trkpt lat="48.60828" lon="1.97799">
        <ele>92.9</ele>
        <time>2016-01-12T10:02:05Z</time>
      </trkpt>
      <trkpt lat="48.60832" lon="1.97786">
        <ele>93.39</ele>
        <time>2016-01-12T10:02:11Z</time>
      </trkpt>
      <trkpt lat="48.60836" lon="1.97765">
        <ele>93.39</ele>
        <time>2016-01-12T10:02:21Z</time>
      </trkpt>
      <trkpt lat="48.60837" lon="1.97745">
        <ele>93.39</ele>
        <time>2016-01-12T10:02:30Z</time>
      </trkpt>
      <trkpt lat="48.60837" lon="1.97722">
        <ele>93.39</ele>
        <time>2016-01-12T10:02:40Z</time>
      </trkpt>
      <trkpt lat="48.6084" lon="1.97706">
        <ele>93.87</ele>
        <time>2016-01-12T10:02:47Z</time>
      </trkpt>
      <trkpt lat="48.60842" lon="1.97684">
        <ele>93.39</ele>
        <time>2016-01-12T10:02:56Z</time>
      </trkpt>
      <trkpt lat="48.60841" lon="1.97676">
        <ele>94.35</ele>
        <time>2016-01-12T10:03:01Z</time>
      </trkpt>
      <trkpt lat="48.60839" lon="1.97652">
        <ele>94.35</ele>
        <time>2016-01-12T10:03:10Z</time>
      </trkpt>
      <trkpt lat="48.60837" lon="1.97636">
        <ele>94.83</ele>
        <time>2016-01-12T10:03:17Z</time>
      </trkpt>
      <trkpt lat="48.60836" lon="1.97619">
        <ele>94.35</ele>
        <time>2016-01-12T10:03:25Z</time>
      </trkpt>
      <trkpt lat="48.60836" lon="1.97618">
        <ele>94.83</ele>
        <time>2016-01-12T10:03:26Z</time>
      </trkpt>
      <trkpt lat="48.60834" lon="1.97611">
        <ele>94.35</ele>
        <time>2016-01-12T10:03:30Z</time>
      </trkpt>
      <trkpt lat="48.60833" lon="1.976">
        <ele>94.35</ele>
        <time>2016-01-12T10:03:35Z</time>
      </trkpt>
      <trkpt lat="48.60832" lon="1.97584">
        <ele>93.87</ele>
        <time>2016-01-12T10:03:43Z</time>
      </trkpt>
      <trkpt lat="48.60829" lon="1.97577">
        <ele>93.87</ele>
        <time>2016-01-12T10:03:48Z</time>
      </trkpt>
      <trkpt lat="48.60824" lon="1.97568">
        <ele>93.87</ele>
        <time>2016-01-12T10:03:52Z</time>
      </trkpt>
      <trkpt lat="48.60817" lon="1.97553">
        <ele>93.87</ele>
        <time>2016-01-12T10:04:00Z</time>
      </trkpt>
      <trkpt lat="48.60813" lon="1.9754">
        <ele>93.87</ele>
        <time>2016-01-12T10:04:08Z</time>
      </trkpt>
      <trkpt lat="48.60807" lon="1.97527">
        <ele>94.35</ele>
        <time>2016-01-12T10:04:14Z</time>
      </trkpt>
      <trkpt lat="48.60802" lon="1.97508">
        <ele>94.83</ele>
        <time>2016-01-12T10:04:23Z</time>
      </trkpt>
      <trkpt lat="48.60798" lon="1.97503">
        <ele>94.35</ele>
        <time>2016-01-12T10:04:27Z</time>
      </trkpt>
      <trkpt lat="48.60797" lon="1.97499">
        <ele>93.87</ele>
        <time>2016-01-12T10:04:29Z</time>
      </trkpt>
      <trkpt lat="48.60796" lon="1.97488">
        <ele>95.31</ele>
        <time>2016-01-12T10:04:35Z</time>
      </trkpt>
      <trkpt lat="48.60796" lon="1.97476">
        <ele>95.31</ele>
        <time>2016-01-12T10:04:42Z</time>
      </trkpt>
      <trkpt lat="48.60789" lon="1.97458">
        <ele>94.83</ele>
        <time>2016-01-12T10:04:50Z</time>
      </trkpt>
      <trkpt lat="48.60791" lon="1.97447">
        <ele>94.83</ele>
        <time>2016-01-12T10:04:58Z</time>
      </trkpt>
      <trkpt lat="48.60786" lon="1.97441">
        <ele>95.31</ele>
        <time>2016-01-12T10:05:05Z</time>
      </trkpt>
      <trkpt lat="48.60786" lon="1.97441">
        <ele>94.83</ele>
        <time>2016-01-12T10:05:18Z</time>
      </trkpt>
      <trkpt lat="48.60785" lon="1.97441">
        <ele>94.83</ele>
        <time>2016-01-12T10:05:29Z</time>
      </trkpt>
      <trkpt lat="48.60785" lon="1.9744">
        <ele>94.83</ele>
        <time>2016-01-12T10:05:44Z</time>
      </trkpt>
      <trkpt lat="48.60786" lon="1.9744">
        <ele>98.67</ele>
        <time>2016-01-12T10:05:55Z</time>
      </trkpt>
      <trkpt lat="48.60786" lon="1.9744">
        <ele>91.94</ele>
        <time>2016-01-12T10:05:56Z</time>
      </trkpt>
      <trkpt lat="48.60786" lon="1.9744">
        <ele>99.15</ele>
        <time>2016-01-12T10:05:57Z</time>
      </trkpt>
      <trkpt lat="48.60786" lon="1.9744">
        <ele>95.31</ele>
        <time>2016-01-12T10:05:58Z</time>
      </trkpt>
      <trkpt lat="48.60786" lon="1.9744">
        <ele>94.83</ele>
        <time>2016-01-12T10:06:07Z</time>
      </trkpt>
      <trkpt lat="48.60784" lon="1.97439">
        <ele>94.35</ele>
        <time>2016-01-12T10:06:14Z</time>
      </trkpt>
      <trkpt lat="48.60784" lon="1.97439">
        <ele>94.83</ele>
        <time>2016-01-12T10:06:28Z</time>
      </trkpt>
      <trkpt lat="48.60783" lon="1.97439">
        <ele>94.83</ele>
        <time>2016-01-12T10:06:38Z</time>
      </trkpt>
      <trkpt lat="48.6078" lon="1.97439">
        <ele>94.83</ele>
        <time>2016-01-12T10:06:42Z</time>
      </trkpt>
      <trkpt lat="48.60766" lon="1.97446">
        <ele>95.31</ele>
        <time>2016-01-12T10:06:53Z</time>
      </trkpt>
      <trkpt lat="48.60758" lon="1.97451">
        <ele>95.79</ele>
        <time>2016-01-12T10:07:02Z</time>
      </trkpt>
      <trkpt lat="48.6075" lon="1.97456">
        <ele>95.79</ele>
        <time>2016-01-12T10:07:07Z</time>
      </trkpt>
      <trkpt lat="48.60737" lon="1.97465">
        <ele>96.27</ele>
        <time>2016-01-12T10:07:17Z</time>
      </trkpt>
      <trkpt lat="48.60724" lon="1.97473">
        <ele>96.27</ele>
        <time>2016-01-12T10:07:27Z</time>
      </trkpt>
      <trkpt lat="48.60711" lon="1.97479">
        <ele>96.27</ele>
        <time>2016-01-12T10:07:37Z</time>
      </trkpt>
      <trkpt lat="48.607" lon="1.9748">
        <ele>96.75</ele>
        <time>2016-01-12T10:07:45Z</time>
      </trkpt>
      <trkpt lat="48.60687" lon="1.97476">
        <ele>97.71</ele>
        <time>2016-01-12T10:07:53Z</time>
      </trkpt>
      <trkpt lat="48.60679" lon="1.97471">
        <ele>97.71</ele>
        <time>2016-01-12T10:08:01Z</time>
      </trkpt>
      <trkpt lat="48.60677" lon="1.97467">
        <ele>98.19</ele>
        <time>2016-01-12T10:08:03Z</time>
      </trkpt>
      <trkpt lat="48.60673" lon="1.97463">
        <ele>97.71</ele>
        <time>2016-01-12T10:08:06Z</time>
      </trkpt>
      <trkpt lat="48.60666" lon="1.97456">
        <ele>98.67</ele>
        <time>2016-01-12T10:08:13Z</time>
      </trkpt>
      <trkpt lat="48.60661" lon="1.97449">
        <ele>98.67</ele>
        <time>2016-01-12T10:08:18Z</time>
      </trkpt>
      <trkpt lat="48.60652" lon="1.97438">
        <ele>98.67</ele>
        <time>2016-01-12T10:08:24Z</time>
      </trkpt>
      <trkpt lat="48.60647" lon="1.97433">
        <ele>98.19</ele>
        <time>2016-01-12T10:08:28Z</time>
      </trkpt>
      <trkpt lat="48.60645" lon="1.97432">
        <ele>98.67</ele>
        <time>2016-01-12T10:08:30Z</time>
      </trkpt>
      <trkpt lat="48.60642" lon="1.97428">
        <ele>98.67</ele>
        <time>2016-01-12T10:08:32Z</time>
      </trkpt>
      <trkpt lat="48.60631" lon="1.97415">
        <ele>99.15</ele>
        <time>2016-01-12T10:08:39Z</time>
      </trkpt>
      <trkpt lat="48.60627" lon="1.97408">
        <ele>98.67</ele>
        <time>2016-01-12T10:08:45Z</time>
      </trkpt>
      <trkpt lat="48.6062" lon="1.97398">
        <ele>99.63</ele>
        <time>2016-01-12T10:08:50Z</time>
      </trkpt>
      <trkpt lat="48.60615" lon="1.97387">
        <ele>100.11</ele>
        <time>2016-01-12T10:08:56Z</time>
      </trkpt>
      <trkpt lat="48.60611" lon="1.97376">
        <ele>100.11</ele>
        <time>2016-01-12T10:09:03Z</time>
      </trkpt>
      <trkpt lat="48.6061" lon="1.97374">
        <ele>99.63</ele>
        <time>2016-01-12T10:09:04Z</time>
      </trkpt>
      <trkpt lat="48.60605" lon="1.97368">
        <ele>101.08</ele>
        <time>2016-01-12T10:09:09Z</time>
      </trkpt>
      <trkpt lat="48.60601" lon="1.97362">
        <ele>100.6</ele>
        <time>2016-01-12T10:09:14Z</time>
      </trkpt>
      <trkpt lat="48.6059" lon="1.97356">
        <ele>100.6</ele>
        <time>2016-01-12T10:09:24Z</time>
      </trkpt>
      <trkpt lat="48.60583" lon="1.97346">
        <ele>101.08</ele>
        <time>2016-01-12T10:09:32Z</time>
      </trkpt>
      <trkpt lat="48.60579" lon="1.97337">
        <ele>101.08</ele>
        <time>2016-01-12T10:09:38Z</time>
      </trkpt>
      <trkpt lat="48.60572" lon="1.97326">
        <ele>101.56</ele>
        <time>2016-01-12T10:09:44Z</time>
      </trkpt>
      <trkpt lat="48.6057" lon="1.97325">
        <ele>101.56</ele>
        <time>2016-01-12T10:09:45Z</time>
      </trkpt>
      <trkpt lat="48.60561" lon="1.97313">
        <ele>102.04</ele>
        <time>2016-01-12T10:09:52Z</time>
      </trkpt>
      <trkpt lat="48.60552" lon="1.97308">
        <ele>102.52</ele>
        <time>2016-01-12T10:09:58Z</time>
      </trkpt>
      <trkpt lat="48.60541" lon="1.97305">
        <ele>103</ele>
        <time>2016-01-12T10:10:06Z</time>
      </trkpt>
      <trkpt lat="48.60532" lon="1.97301">
        <ele>103.48</ele>
        <time>2016-01-12T10:10:12Z</time>
      </trkpt>
      <trkpt lat="48.60522" lon="1.97295">
        <ele>103.96</ele>
        <time>2016-01-12T10:10:19Z</time>
      </trkpt>
      <trkpt lat="48.60514" lon="1.97288">
        <ele>103.48</ele>
        <time>2016-01-12T10:10:25Z</time>
      </trkpt>
      <trkpt lat="48.60508" lon="1.97283">
        <ele>104.44</ele>
        <time>2016-01-12T10:10:32Z</time>
      </trkpt>
      <trkpt lat="48.60497" lon="1.97277">
        <ele>104.92</ele>
        <time>2016-01-12T10:10:39Z</time>
      </trkpt>
      <trkpt lat="48.60484" lon="1.97276">
        <ele>104.92</ele>
        <time>2016-01-12T10:10:48Z</time>
      </trkpt>
      <trkpt lat="48.60474" lon="1.97271">
        <ele>105.4</ele>
        <time>2016-01-12T10:10:57Z</time>
      </trkpt>
      <trkpt lat="48.6046" lon="1.97263">
        <ele>105.4</ele>
        <time>2016-01-12T10:11:04Z</time>
      </trkpt>
      <trkpt lat="48.6045" lon="1.97258">
        <ele>105.88</ele>
        <time>2016-01-12T10:11:12Z</time>
      </trkpt>
      <trkpt lat="48.60441" lon="1.9725">
        <ele>106.36</ele>
        <time>2016-01-12T10:11:18Z</time>
      </trkpt>
      <trkpt lat="48.60437" lon="1.97247">
        <ele>106.36</ele>
        <time>2016-01-12T10:11:20Z</time>
      </trkpt>
      <trkpt lat="48.60432" lon="1.97237">
        <ele>105.88</ele>
        <time>2016-01-12T10:11:27Z</time>
      </trkpt>
      <trkpt lat="48.60429" lon="1.97234">
        <ele>107.32</ele>
        <time>2016-01-12T10:11:30Z</time>
      </trkpt>
      <trkpt lat="48.6042" lon="1.97225">
        <ele>107.32</ele>
        <time>2016-01-12T10:11:38Z</time>
      </trkpt>
      <trkpt lat="48.60411" lon="1.97218">
        <ele>107.32</ele>
        <time>2016-01-12T10:11:45Z</time>
      </trkpt>
      <trkpt lat="48.60409" lon="1.97216">
        <ele>107.81</ele>
        <time>2016-01-12T10:11:47Z</time>
      </trkpt>
      <trkpt lat="48.60404" lon="1.97207">
        <ele>108.29</ele>
        <time>2016-01-12T10:11:52Z</time>
      </trkpt>
      <trkpt lat="48.60401" lon="1.972">
        <ele>107.81</ele>
        <time>2016-01-12T10:11:56Z</time>
      </trkpt>
      <trkpt lat="48.60396" lon="1.9719">
        <ele>108.29</ele>
        <time>2016-01-12T10:12:03Z</time>
      </trkpt>
      <trkpt lat="48.60389" lon="1.97181">
        <ele>108.77</ele>
        <time>2016-01-12T10:12:09Z</time>
      </trkpt>
      <trkpt lat="48.60385" lon="1.97176">
        <ele>108.29</ele>
        <time>2016-01-12T10:12:12Z</time>
      </trkpt>
      <trkpt lat="48.60378" lon="1.97163">
        <ele>108.77</ele>
        <time>2016-01-12T10:12:19Z</time>
      </trkpt>
      <trkpt lat="48.60374" lon="1.97154">
        <ele>108.77</ele>
        <time>2016-01-12T10:12:24Z</time>
      </trkpt>
      <trkpt lat="48.6036" lon="1.97144">
        <ele>109.25</ele>
        <time>2016-01-12T10:12:32Z</time>
      </trkpt>
      <trkpt lat="48.60357" lon="1.97141">
        <ele>109.25</ele>
        <time>2016-01-12T10:12:35Z</time>
      </trkpt>
      <trkpt lat="48.60354" lon="1.97137">
        <ele>109.73</ele>
        <time>2016-01-12T10:12:39Z</time>
      </trkpt>
      <trkpt lat="48.60347" lon="1.97123">
        <ele>109.25</ele>
        <time>2016-01-12T10:12:46Z</time>
      </trkpt>
      <trkpt lat="48.6034" lon="1.97115">
        <ele>108.77</ele>
        <time>2016-01-12T10:12:53Z</time>
      </trkpt>
      <trkpt lat="48.60335" lon="1.97107">
        <ele>109.73</ele>
        <time>2016-01-12T10:12:58Z</time>
      </trkpt>
      <trkpt lat="48.60323" lon="1.97097">
        <ele>109.73</ele>
        <time>2016-01-12T10:13:07Z</time>
      </trkpt>
      <trkpt lat="48.60317" lon="1.97084">
        <ele>109.25</ele>
        <time>2016-01-12T10:13:14Z</time>
      </trkpt>
      <trkpt lat="48.60313" lon="1.97073">
        <ele>109.73</ele>
        <time>2016-01-12T10:13:20Z</time>
      </trkpt>
      <trkpt lat="48.60312" lon="1.97062">
        <ele>109.25</ele>
        <time>2016-01-12T10:13:26Z</time>
      </trkpt>
      <trkpt lat="48.60309" lon="1.97045">
        <ele>110.69</ele>
        <time>2016-01-12T10:13:35Z</time>
      </trkpt>
      <trkpt lat="48.60309" lon="1.97043">
        <ele>110.21</ele>
        <time>2016-01-12T10:13:36Z</time>
      </trkpt>
      <trkpt lat="48.60306" lon="1.97031">
        <ele>110.69</ele>
        <time>2016-01-12T10:13:46Z</time>
      </trkpt>
      <trkpt lat="48.60303" lon="1.97025">
        <ele>110.21</ele>
        <time>2016-01-12T10:13:54Z</time>
      </trkpt>
      <trkpt lat="48.60301" lon="1.97023">
        <ele>110.21</ele>
        <time>2016-01-12T10:14:04Z</time>
      </trkpt>
      <trkpt lat="48.60303" lon="1.97021">
        <ele>111.17</ele>
        <time>2016-01-12T10:14:16Z</time>
      </trkpt>
      <trkpt lat="48.60305" lon="1.9702">
        <ele>111.17</ele>
        <time>2016-01-12T10:14:29Z</time>
      </trkpt>
      <trkpt lat="48.60304" lon="1.97021">
        <ele>111.65</ele>
        <time>2016-01-12T10:14:38Z</time>
      </trkpt>
      <trkpt lat="48.60302" lon="1.97022">
        <ele>111.17</ele>
        <time>2016-01-12T10:14:49Z</time>
      </trkpt>
      <trkpt lat="48.60302" lon="1.97021">
        <ele>110.21</ele>
        <time>2016-01-12T10:14:55Z</time>
      </trkpt>
      <trkpt lat="48.60302" lon="1.97021">
        <ele>111.65</ele>
        <time>2016-01-12T10:15:11Z</time>
      </trkpt>
      <trkpt lat="48.60302" lon="1.97021">
        <ele>111.17</ele>
        <time>2016-01-12T10:15:21Z</time>
      </trkpt>
      <trkpt lat="48.60302" lon="1.97021">
        <ele>111.65</ele>
        <time>2016-01-12T10:15:31Z</time>
      </trkpt>
      <trkpt lat="48.60301" lon="1.97021">
        <ele>110.69</ele>
        <time>2016-01-12T10:15:39Z</time>
      </trkpt>
      <trkpt lat="48.60301" lon="1.97021">
        <ele>110.69</ele>
        <time>2016-01-12T10:15:55Z</time>
      </trkpt>
      <trkpt lat="48.60301" lon="1.97021">
        <ele>111.17</ele>
        <time>2016-01-12T10:16:08Z</time>
      </trkpt>
      <trkpt lat="48.60302" lon="1.97021">
        <ele>111.17</ele>
        <time>2016-01-12T10:16:18Z</time>
      </trkpt>
      <trkpt lat="48.60302" lon="1.97022">
        <ele>111.17</ele>
        <time>2016-01-12T10:16:28Z</time>
      </trkpt>
      <trkpt lat="48.60301" lon="1.97021">
        <ele>110.69</ele>
        <time>2016-01-12T10:16:38Z</time>
      </trkpt>
      <trkpt lat="48.603" lon="1.97013">
        <ele>111.65</ele>
        <time>2016-01-12T10:16:45Z</time>
      </trkpt>
      <trkpt lat="48.603" lon="1.97009">
        <ele>111.65</ele>
        <time>2016-01-12T10:16:47Z</time>
      </trkpt>
      <trkpt lat="48.60293" lon="1.96995">
        <ele>111.65</ele>
        <time>2016-01-12T10:16:55Z</time>
      </trkpt>
      <trkpt lat="48.60286" lon="1.96981">
        <ele>112.13</ele>
        <time>2016-01-12T10:17:03Z</time>
      </trkpt>
      <trkpt lat="48.60286" lon="1.96979">
        <ele>112.13</ele>
        <time>2016-01-12T10:17:04Z</time>
      </trkpt>
      <trkpt lat="48.60284" lon="1.96973">
        <ele>112.13</ele>
        <time>2016-01-12T10:17:07Z</time>
      </trkpt>
      <trkpt lat="48.60282" lon="1.96966">
        <ele>112.13</ele>
        <time>2016-01-12T10:17:10Z</time>
      </trkpt>
      <trkpt lat="48.60276" lon="1.96953">
        <ele>113.09</ele>
        <time>2016-01-12T10:17:17Z</time>
      </trkpt>
      <trkpt lat="48.6027" lon="1.96937">
        <ele>113.57</ele>
        <time>2016-01-12T10:17:25Z</time>
      </trkpt>
      <trkpt lat="48.60267" lon="1.9693">
        <ele>113.09</ele>
        <time>2016-01-12T10:17:30Z</time>
      </trkpt>
      <trkpt lat="48.60262" lon="1.96917">
        <ele>113.57</ele>
        <time>2016-01-12T10:17:38Z</time>
      </trkpt>
      <trkpt lat="48.60252" lon="1.96897">
        <ele>114.05</ele>
        <time>2016-01-12T10:17:48Z</time>
      </trkpt>
      <trkpt lat="48.6025" lon="1.9689">
        <ele>113.57</ele>
        <time>2016-01-12T10:17:52Z</time>
      </trkpt>
      <trkpt lat="48.60248" lon="1.96876">
        <ele>115.01</ele>
        <time>2016-01-12T10:17:59Z</time>
      </trkpt>
      <trkpt lat="48.60242" lon="1.96861">
        <ele>115.01</ele>
        <time>2016-01-12T10:18:08Z</time>
      </trkpt>
      <trkpt lat="48.60239" lon="1.9685">
        <ele>115.5</ele>
        <time>2016-01-12T10:18:15Z</time>
      </trkpt>
      <trkpt lat="48.60235" lon="1.96835">
        <ele>116.46</ele>
        <time>2016-01-12T10:18:22Z</time>
      </trkpt>
      <trkpt lat="48.60234" lon="1.96833">
        <ele>116.94</ele>
        <time>2016-01-12T10:18:23Z</time>
      </trkpt>
      <trkpt lat="48.60231" lon="1.96816">
        <ele>116.94</ele>
        <time>2016-01-12T10:18:31Z</time>
      </trkpt>
      <trkpt lat="48.6023" lon="1.96814">
        <ele>117.42</ele>
        <time>2016-01-12T10:18:32Z</time>
      </trkpt>
      <trkpt lat="48.60222" lon="1.96798">
        <ele>117.42</ele>
        <time>2016-01-12T10:18:40Z</time>
      </trkpt>
      <trkpt lat="48.6022" lon="1.96787">
        <ele>116.94</ele>
        <time>2016-01-12T10:18:46Z</time>
      </trkpt>
      <trkpt lat="48.60218" lon="1.96773">
        <ele>117.42</ele>
        <time>2016-01-12T10:18:52Z</time>
      </trkpt>
      <trkpt lat="48.60215" lon="1.96758">
        <ele>117.9</ele>
        <time>2016-01-12T10:18:59Z</time>
      </trkpt>
      <trkpt lat="48.60211" lon="1.96741">
        <ele>118.38</ele>
        <time>2016-01-12T10:19:06Z</time>
      </trkpt>
      <trkpt lat="48.60206" lon="1.96723">
        <ele>118.38</ele>
        <time>2016-01-12T10:19:15Z</time>
      </trkpt>
      <trkpt lat="48.60203" lon="1.96708">
        <ele>118.38</ele>
        <time>2016-01-12T10:19:23Z</time>
      </trkpt>
      <trkpt lat="48.60202" lon="1.96692">
        <ele>118.86</ele>
        <time>2016-01-12T10:19:31Z</time>
      </trkpt>
      <trkpt lat="48.60202" lon="1.96688">
        <ele>118.86</ele>
        <time>2016-01-12T10:19:33Z</time>
      </trkpt>
      <trkpt lat="48.60201" lon="1.96671">
        <ele>119.82</ele>
        <time>2016-01-12T10:19:43Z</time>
      </trkpt>
      <trkpt lat="48.60204" lon="1.96656">
        <ele>119.82</ele>
        <time>2016-01-12T10:19:50Z</time>
      </trkpt>
      <trkpt lat="48.60204" lon="1.96654">
        <ele>120.78</ele>
        <time>2016-01-12T10:19:51Z</time>
      </trkpt>
      <trkpt lat="48.60205" lon="1.96637">
        <ele>120.3</ele>
        <time>2016-01-12T10:19:59Z</time>
      </trkpt>
      <trkpt lat="48.60205" lon="1.96636">
        <ele>120.3</ele>
        <time>2016-01-12T10:20:00Z</time>
      </trkpt>
      <trkpt lat="48.60207" lon="1.96612">
        <ele>120.3</ele>
        <time>2016-01-12T10:20:10Z</time>
      </trkpt>
      <trkpt lat="48.6021" lon="1.96592">
        <ele>121.26</ele>
        <time>2016-01-12T10:20:19Z</time>
      </trkpt>
      <trkpt lat="48.60209" lon="1.96576">
        <ele>121.26</ele>
        <time>2016-01-12T10:20:26Z</time>
      </trkpt>
      <trkpt lat="48.60208" lon="1.96567">
        <ele>121.74</ele>
        <time>2016-01-12T10:20:31Z</time>
      </trkpt>
      <trkpt lat="48.60211" lon="1.96557">
        <ele>122.22</ele>
        <time>2016-01-12T10:20:38Z</time>
      </trkpt>
      <trkpt lat="48.60211" lon="1.96555">
        <ele>122.71</ele>
        <time>2016-01-12T10:20:39Z</time>
      </trkpt>
      <trkpt lat="48.6021" lon="1.96546">
        <ele>122.71</ele>
        <time>2016-01-12T10:20:43Z</time>
      </trkpt>
      <trkpt lat="48.6021" lon="1.96534">
        <ele>123.19</ele>
        <time>2016-01-12T10:20:48Z</time>
      </trkpt>
      <trkpt lat="48.6021" lon="1.96517">
        <ele>123.19</ele>
        <time>2016-01-12T10:20:56Z</time>
      </trkpt>
      <trkpt lat="48.6021" lon="1.9651">
        <ele>124.15</ele>
        <time>2016-01-12T10:21:00Z</time>
      </trkpt>
      <trkpt lat="48.60211" lon="1.965">
        <ele>124.15</ele>
        <time>2016-01-12T10:21:04Z</time>
      </trkpt>
      <trkpt lat="48.60211" lon="1.96484">
        <ele>124.63</ele>
        <time>2016-01-12T10:21:12Z</time>
      </trkpt>
      <trkpt lat="48.60208" lon="1.96474">
        <ele>124.63</ele>
        <time>2016-01-12T10:21:16Z</time>
      </trkpt>
      <trkpt lat="48.60207" lon="1.96467">
        <ele>124.63</ele>
        <time>2016-01-12T10:21:19Z</time>
      </trkpt>
      <trkpt lat="48.60205" lon="1.96457">
        <ele>125.11</ele>
        <time>2016-01-12T10:21:24Z</time>
      </trkpt>
      <trkpt lat="48.60201" lon="1.96449">
        <ele>125.11</ele>
        <time>2016-01-12T10:21:30Z</time>
      </trkpt>
      <trkpt lat="48.602" lon="1.96437">
        <ele>125.59</ele>
        <time>2016-01-12T10:21:36Z</time>
      </trkpt>
      <trkpt lat="48.602" lon="1.96427">
        <ele>125.59</ele>
        <time>2016-01-12T10:21:41Z</time>
      </trkpt>
      <trkpt lat="48.60197" lon="1.96412">
        <ele>126.07</ele>
        <time>2016-01-12T10:21:47Z</time>
      </trkpt>
      <trkpt lat="48.60197" lon="1.9641">
        <ele>126.55</ele>
        <time>2016-01-12T10:21:48Z</time>
      </trkpt>
      <trkpt lat="48.60197" lon="1.96394">
        <ele>127.51</ele>
        <time>2016-01-12T10:21:55Z</time>
      </trkpt>
      <trkpt lat="48.60197" lon="1.96381">
        <ele>127.03</ele>
        <time>2016-01-12T10:22:00Z</time>
      </trkpt>
      <trkpt lat="48.60197" lon="1.96377">
        <ele>127.99</ele>
        <time>2016-01-12T10:22:02Z</time>
      </trkpt>
      <trkpt lat="48.60196" lon="1.96372">
        <ele>127.51</ele>
        <time>2016-01-12T10:22:05Z</time>
      </trkpt>
      <trkpt lat="48.60194" lon="1.9636">
        <ele>127.03</ele>
        <time>2016-01-12T10:22:12Z</time>
      </trkpt>
      <trkpt lat="48.60192" lon="1.96353">
        <ele>126.55</ele>
        <time>2016-01-12T10:22:16Z</time>
      </trkpt>
      <trkpt lat="48.60191" lon="1.96341">
        <ele>126.55</ele>
        <time>2016-01-12T10:22:22Z</time>
      </trkpt>
      <trkpt lat="48.6019" lon="1.96337">
        <ele>125.59</ele>
        <time>2016-01-12T10:22:25Z</time>
      </trkpt>
      <trkpt lat="48.60188" lon="1.96332">
        <ele>125.11</ele>
        <time>2016-01-12T10:22:27Z</time>
      </trkpt>
      <trkpt lat="48.60185" lon="1.96318">
        <ele>124.15</ele>
        <time>2016-01-12T10:22:34Z</time>
      </trkpt>
      <trkpt lat="48.60184" lon="1.96312">
        <ele>124.15</ele>
        <time>2016-01-12T10:22:38Z</time>
      </trkpt>
      <trkpt lat="48.60179" lon="1.96301">
        <ele>123.67</ele>
        <time>2016-01-12T10:22:44Z</time>
      </trkpt>
      <trkpt lat="48.60176" lon="1.96297">
        <ele>123.19</ele>
        <time>2016-01-12T10:22:47Z</time>
      </trkpt>
      <trkpt lat="48.60174" lon="1.9629">
        <ele>122.22</ele>
        <time>2016-01-12T10:22:51Z</time>
      </trkpt>
      <trkpt lat="48.60167" lon="1.96277">
        <ele>121.26</ele>
        <time>2016-01-12T10:22:59Z</time>
      </trkpt>
      <trkpt lat="48.60166" lon="1.96276">
        <ele>121.26</ele>
        <time>2016-01-12T10:23:00Z</time>
      </trkpt>
      <trkpt lat="48.60162" lon="1.9627">
        <ele>121.26</ele>
        <time>2016-01-12T10:23:03Z</time>
      </trkpt>
      <trkpt lat="48.60157" lon="1.96264">
        <ele>120.78</ele>
        <time>2016-01-12T10:23:07Z</time>
      </trkpt>
      <trkpt lat="48.60153" lon="1.96255">
        <ele>120.3</ele>
        <time>2016-01-12T10:23:12Z</time>
      </trkpt>
      <trkpt lat="48.60149" lon="1.96246">
        <ele>118.86</ele>
        <time>2016-01-12T10:23:18Z</time>
      </trkpt>
      <trkpt lat="48.60148" lon="1.96241">
        <ele>118.38</ele>
        <time>2016-01-12T10:23:21Z</time>
      </trkpt>
      <trkpt lat="48.6015" lon="1.96223">
        <ele>117.42</ele>
        <time>2016-01-12T10:23:30Z</time>
      </trkpt>
      <trkpt lat="48.60151" lon="1.96209">
        <ele>116.46</ele>
        <time>2016-01-12T10:23:39Z</time>
      </trkpt>
      <trkpt lat="48.60152" lon="1.96206">
        <ele>115.98</ele>
        <time>2016-01-12T10:23:40Z</time>
      </trkpt>
      <trkpt lat="48.60154" lon="1.96188">
        <ele>115.5</ele>
        <time>2016-01-12T10:23:49Z</time>
      </trkpt>
      <trkpt lat="48.60155" lon="1.96171">
        <ele>115.01</ele>
        <time>2016-01-12T10:23:56Z</time>
      </trkpt>
      <trkpt lat="48.60155" lon="1.96159">
        <ele>114.53</ele>
        <time>2016-01-12T10:24:02Z</time>
      </trkpt>
      <trkpt lat="48.60154" lon="1.9614">
        <ele>113.57</ele>
        <time>2016-01-12T10:24:09Z</time>
      </trkpt>
      <trkpt lat="48.60154" lon="1.96127">
        <ele>113.57</ele>
        <time>2016-01-12T10:24:16Z</time>
      </trkpt>
      <trkpt lat="48.60152" lon="1.96117">
        <ele>112.61</ele>
        <time>2016-01-12T10:24:21Z</time>
      </trkpt>
      <trkpt lat="48.60149" lon="1.96102">
        <ele>112.13</ele>
        <time>2016-01-12T10:24:29Z</time>
      </trkpt>
      <trkpt lat="48.60148" lon="1.96091">
        <ele>111.65</ele>
        <time>2016-01-12T10:24:36Z</time>
      </trkpt>
      <trkpt lat="48.60146" lon="1.9608">
        <ele>111.65</ele>
        <time>2016-01-12T10:24:44Z</time>
      </trkpt>
      <trkpt lat="48.60146" lon="1.9608">
        <ele>110.69</ele>
        <time>2016-01-12T10:24:54Z</time>
      </trkpt>
      <trkpt lat="48.60145" lon="1.96079">
        <ele>111.17</ele>
        <time>2016-01-12T10:25:04Z</time>
      </trkpt>
      <trkpt lat="48.60144" lon="1.96078">
        <ele>111.17</ele>
        <time>2016-01-12T10:25:15Z</time>
      </trkpt>
      <trkpt lat="48.60145" lon="1.96077">
        <ele>110.69</ele>
        <time>2016-01-12T10:25:25Z</time>
      </trkpt>
      <trkpt lat="48.60145" lon="1.96075">
        <ele>110.69</ele>
        <time>2016-01-12T10:25:34Z</time>
      </trkpt>
      <trkpt lat="48.60146" lon="1.96066">
        <ele>110.69</ele>
        <time>2016-01-12T10:25:41Z</time>
      </trkpt>
      <trkpt lat="48.60143" lon="1.96054">
        <ele>109.73</ele>
        <time>2016-01-12T10:25:48Z</time>
      </trkpt>
      <trkpt lat="48.6014" lon="1.96039">
        <ele>109.25</ele>
        <time>2016-01-12T10:25:56Z</time>
      </trkpt>
      <trkpt lat="48.60138" lon="1.96024">
        <ele>108.29</ele>
        <time>2016-01-12T10:26:05Z</time>
      </trkpt>
      <trkpt lat="48.60133" lon="1.96005">
        <ele>108.29</ele>
        <time>2016-01-12T10:26:12Z</time>
      </trkpt>
      <trkpt lat="48.60128" lon="1.95981">
        <ele>107.81</ele>
        <time>2016-01-12T10:26:21Z</time>
      </trkpt>
      <trkpt lat="48.60125" lon="1.95959">
        <ele>106.84</ele>
        <time>2016-01-12T10:26:29Z</time>
      </trkpt>
      <trkpt lat="48.60124" lon="1.95949">
        <ele>107.32</ele>
        <time>2016-01-12T10:26:33Z</time>
      </trkpt>
      <trkpt lat="48.60121" lon="1.95933">
        <ele>106.36</ele>
        <time>2016-01-12T10:26:40Z</time>
      </trkpt>
      <trkpt lat="48.60117" lon="1.95917">
        <ele>105.88</ele>
        <time>2016-01-12T10:26:50Z</time>
      </trkpt>
      <trkpt lat="48.60115" lon="1.95912">
        <ele>105.88</ele>
        <time>2016-01-12T10:26:53Z</time>
      </trkpt>
      <trkpt lat="48.60109" lon="1.95895">
        <ele>105.88</ele>
        <time>2016-01-12T10:27:01Z</time>
      </trkpt>
      <trkpt lat="48.60101" lon="1.95885">
        <ele>104.44</ele>
        <time>2016-01-12T10:27:08Z</time>
      </trkpt>
      <trkpt lat="48.601" lon="1.95884">
        <ele>104.44</ele>
        <time>2016-01-12T10:27:09Z</time>
      </trkpt>
      <trkpt lat="48.60093" lon="1.95875">
        <ele>103.96</ele>
        <time>2016-01-12T10:27:17Z</time>
      </trkpt>
      <trkpt lat="48.60092" lon="1.95871">
        <ele>104.92</ele>
        <time>2016-01-12T10:27:20Z</time>
      </trkpt>
      <trkpt lat="48.60082" lon="1.95865">
        <ele>105.4</ele>
        <time>2016-01-12T10:27:29Z</time>
      </trkpt>
      <trkpt lat="48.60068" lon="1.95856">
        <ele>105.4</ele>
        <time>2016-01-12T10:27:39Z</time>
      </trkpt>
      <trkpt lat="48.6006" lon="1.95843">
        <ele>105.88</ele>
        <time>2016-01-12T10:27:48Z</time>
      </trkpt>
      <trkpt lat="48.60055" lon="1.95835">
        <ele>105.4</ele>
        <time>2016-01-12T10:27:53Z</time>
      </trkpt>
      <trkpt lat="48.60049" lon="1.95822">
        <ele>105.88</ele>
        <time>2016-01-12T10:27:59Z</time>
      </trkpt>
      <trkpt lat="48.60041" lon="1.95806">
        <ele>105.88</ele>
        <time>2016-01-12T10:28:07Z</time>
      </trkpt>
      <trkpt lat="48.6004" lon="1.95805">
        <ele>105.88</ele>
        <time>2016-01-12T10:28:08Z</time>
      </trkpt>
      <trkpt lat="48.60038" lon="1.95803">
        <ele>107.81</ele>
        <time>2016-01-12T10:28:10Z</time>
      </trkpt>
      <trkpt lat="48.60034" lon="1.95788">
        <ele>107.32</ele>
        <time>2016-01-12T10:28:18Z</time>
      </trkpt>
      <trkpt lat="48.60029" lon="1.95781">
        <ele>107.32</ele>
        <time>2016-01-12T10:28:22Z</time>
      </trkpt>
      <trkpt lat="48.60027" lon="1.9577">
        <ele>106.84</ele>
        <time>2016-01-12T10:28:28Z</time>
      </trkpt>
      <trkpt lat="48.60023" lon="1.95755">
        <ele>107.32</ele>
        <time>2016-01-12T10:28:35Z</time>
      </trkpt>
      <trkpt lat="48.60019" lon="1.95749">
        <ele>107.81</ele>
        <time>2016-01-12T10:28:38Z</time>
      </trkpt>
      <trkpt lat="48.60015" lon="1.95736">
        <ele>108.29</ele>
        <time>2016-01-12T10:28:45Z</time>
      </trkpt>
      <trkpt lat="48.60007" lon="1.95718">
        <ele>109.25</ele>
        <time>2016-01-12T10:28:54Z</time>
      </trkpt>
      <trkpt lat="48.60004" lon="1.95715">
        <ele>110.21</ele>
        <time>2016-01-12T10:28:58Z</time>
      </trkpt>
      <trkpt lat="48.59996" lon="1.95705">
        <ele>110.21</ele>
        <time>2016-01-12T10:29:06Z</time>
      </trkpt>
      <trkpt lat="48.59993" lon="1.95702">
        <ele>109.73</ele>
        <time>2016-01-12T10:29:10Z</time>
      </trkpt>
      <trkpt lat="48.59991" lon="1.95699">
        <ele>109.73</ele>
        <time>2016-01-12T10:29:12Z</time>
      </trkpt>
      <trkpt lat="48.59981" lon="1.95695">
        <ele>110.69</ele>
        <time>2016-01-12T10:29:19Z</time>
      </trkpt>
      <trkpt lat="48.5997" lon="1.95685">
        <ele>112.13</ele>
        <time>2016-01-12T10:29:29Z</time>
      </trkpt>
      <trkpt lat="48.59962" lon="1.95682">
        <ele>112.61</ele>
        <time>2016-01-12T10:29:37Z</time>
      </trkpt>
      <trkpt lat="48.59952" lon="1.9568">
        <ele>114.05</ele>
        <time>2016-01-12T10:29:45Z</time>
      </trkpt>
      <trkpt lat="48.5994" lon="1.95681">
        <ele>113.09</ele>
        <time>2016-01-12T10:29:52Z</time>
      </trkpt>
      <trkpt lat="48.59924" lon="1.95689">
        <ele>112.61</ele>
        <time>2016-01-12T10:30:02Z</time>
      </trkpt>
      <trkpt lat="48.5991" lon="1.95689">
        <ele>111.17</ele>
        <time>2016-01-12T10:30:13Z</time>
      </trkpt>
      <trkpt lat="48.59902" lon="1.95689">
        <ele>110.69</ele>
        <time>2016-01-12T10:30:20Z</time>
      </trkpt>
      <trkpt lat="48.59887" lon="1.9569">
        <ele>110.69</ele>
        <time>2016-01-12T10:30:29Z</time>
      </trkpt>
      <trkpt lat="48.59875" lon="1.9569">
        <ele>110.21</ele>
        <time>2016-01-12T10:30:38Z</time>
      </trkpt>
      <trkpt lat="48.59869" lon="1.95698">
        <ele>110.69</ele>
        <time>2016-01-12T10:30:45Z</time>
      </trkpt>
      <trkpt lat="48.59861" lon="1.95712">
        <ele>110.69</ele>
        <time>2016-01-12T10:30:53Z</time>
      </trkpt>
      <trkpt lat="48.59855" lon="1.95728">
        <ele>110.69</ele>
        <time>2016-01-12T10:31:04Z</time>
      </trkpt>
      <trkpt lat="48.59848" lon="1.95743">
        <ele>111.17</ele>
        <time>2016-01-12T10:31:13Z</time>
      </trkpt>
      <trkpt lat="48.59842" lon="1.95758">
        <ele>110.69</ele>
        <time>2016-01-12T10:31:22Z</time>
      </trkpt>
      <trkpt lat="48.59832" lon="1.95776">
        <ele>111.65</ele>
        <time>2016-01-12T10:31:32Z</time>
      </trkpt>
      <trkpt lat="48.59827" lon="1.9579">
        <ele>112.13</ele>
        <time>2016-01-12T10:31:41Z</time>
      </trkpt>
      <trkpt lat="48.59817" lon="1.95806">
        <ele>111.65</ele>
        <time>2016-01-12T10:31:51Z</time>
      </trkpt>
      <trkpt lat="48.59809" lon="1.9582">
        <ele>111.65</ele>
        <time>2016-01-12T10:32:00Z</time>
      </trkpt>
      <trkpt lat="48.59803" lon="1.95837">
        <ele>112.13</ele>
        <time>2016-01-12T10:32:09Z</time>
      </trkpt>
      <trkpt lat="48.59797" lon="1.95851">
        <ele>112.13</ele>
        <time>2016-01-12T10:32:19Z</time>
      </trkpt>
      <trkpt lat="48.5979" lon="1.95875">
        <ele>112.61</ele>
        <time>2016-01-12T10:32:29Z</time>
      </trkpt>
      <trkpt lat="48.59785" lon="1.95888">
        <ele>113.57</ele>
        <time>2016-01-12T10:32:40Z</time>
      </trkpt>
      <trkpt lat="48.59783" lon="1.959">
        <ele>113.09</ele>
        <time>2016-01-12T10:32:50Z</time>
      </trkpt>
      <trkpt lat="48.59778" lon="1.95912">
        <ele>113.09</ele>
        <time>2016-01-12T10:32:58Z</time>
      </trkpt>
      <trkpt lat="48.59768" lon="1.9593">
        <ele>114.05</ele>
        <time>2016-01-12T10:33:06Z</time>
      </trkpt>
      <trkpt lat="48.59754" lon="1.95949">
        <ele>114.05</ele>
        <time>2016-01-12T10:33:15Z</time>
      </trkpt>
      <trkpt lat="48.59746" lon="1.95961">
        <ele>115.5</ele>
        <time>2016-01-12T10:33:23Z</time>
      </trkpt>
      <trkpt lat="48.59742" lon="1.95966">
        <ele>115.5</ele>
        <time>2016-01-12T10:33:26Z</time>
      </trkpt>
      <trkpt lat="48.5973" lon="1.95988">
        <ele>115.5</ele>
        <time>2016-01-12T10:33:37Z</time>
      </trkpt>
      <trkpt lat="48.59721" lon="1.96009">
        <ele>116.46</ele>
        <time>2016-01-12T10:33:49Z</time>
      </trkpt>
      <trkpt lat="48.59716" lon="1.96031">
        <ele>115.01</ele>
        <time>2016-01-12T10:33:58Z</time>
      </trkpt>
      <trkpt lat="48.59712" lon="1.96041">
        <ele>116.46</ele>
        <time>2016-01-12T10:34:04Z</time>
      </trkpt>
      <trkpt lat="48.59705" lon="1.96056">
        <ele>117.9</ele>
        <time>2016-01-12T10:34:12Z</time>
      </trkpt>
      <trkpt lat="48.59701" lon="1.96064">
        <ele>118.86</ele>
        <time>2016-01-12T10:34:17Z</time>
      </trkpt>
      <trkpt lat="48.59696" lon="1.96073">
        <ele>119.82</ele>
        <time>2016-01-12T10:34:23Z</time>
      </trkpt>
      <trkpt lat="48.59692" lon="1.96081">
        <ele>118.86</ele>
        <time>2016-01-12T10:34:28Z</time>
      </trkpt>
      <trkpt lat="48.5969" lon="1.96086">
        <ele>120.78</ele>
        <time>2016-01-12T10:34:31Z</time>
      </trkpt>
      <trkpt lat="48.59682" lon="1.96101">
        <ele>121.26</ele>
        <time>2016-01-12T10:34:40Z</time>
      </trkpt>
      <trkpt lat="48.59675" lon="1.96111">
        <ele>121.74</ele>
        <time>2016-01-12T10:34:48Z</time>
      </trkpt>
      <trkpt lat="48.59668" lon="1.96125">
        <ele>123.19</ele>
        <time>2016-01-12T10:34:57Z</time>
      </trkpt>
      <trkpt lat="48.59666" lon="1.96129">
        <ele>124.15</ele>
        <time>2016-01-12T10:34:59Z</time>
      </trkpt>
      <trkpt lat="48.5966" lon="1.96148">
        <ele>125.59</ele>
        <time>2016-01-12T10:35:08Z</time>
      </trkpt>
      <trkpt lat="48.59655" lon="1.96158">
        <ele>127.51</ele>
        <time>2016-01-12T10:35:15Z</time>
      </trkpt>
      <trkpt lat="48.59651" lon="1.96168">
        <ele>128.47</ele>
        <time>2016-01-12T10:35:23Z</time>
      </trkpt>
      <trkpt lat="48.59647" lon="1.96181">
        <ele>129.92</ele>
        <time>2016-01-12T10:35:29Z</time>
      </trkpt>
      <trkpt lat="48.59642" lon="1.96193">
        <ele>129.92</ele>
        <time>2016-01-12T10:35:36Z</time>
      </trkpt>
      <trkpt lat="48.59635" lon="1.96203">
        <ele>131.36</ele>
        <time>2016-01-12T10:35:43Z</time>
      </trkpt>
      <trkpt lat="48.59634" lon="1.96206">
        <ele>131.84</ele>
        <time>2016-01-12T10:35:45Z</time>
      </trkpt>
      <trkpt lat="48.59632" lon="1.96211">
        <ele>132.32</ele>
        <time>2016-01-12T10:35:48Z</time>
      </trkpt>
      <trkpt lat="48.59629" lon="1.9622">
        <ele>134.24</ele>
        <time>2016-01-12T10:35:54Z</time>
      </trkpt>
      <trkpt lat="48.59622" lon="1.96233">
        <ele>136.64</ele>
        <time>2016-01-12T10:36:02Z</time>
      </trkpt>
      <trkpt lat="48.59617" lon="1.96248">
        <ele>138.09</ele>
        <time>2016-01-12T10:36:11Z</time>
      </trkpt>
      <trkpt lat="48.59613" lon="1.96257">
        <ele>138.57</ele>
        <time>2016-01-12T10:36:18Z</time>
      </trkpt>
      <trkpt lat="48.5961" lon="1.96262">
        <ele>140.01</ele>
        <time>2016-01-12T10:36:21Z</time>
      </trkpt>
      <trkpt lat="48.59601" lon="1.96271">
        <ele>140.49</ele>
        <time>2016-01-12T10:36:29Z</time>
      </trkpt>
      <trkpt lat="48.59594" lon="1.96282">
        <ele>141.93</ele>
        <time>2016-01-12T10:36:38Z</time>
      </trkpt>
      <trkpt lat="48.59588" lon="1.96289">
        <ele>142.89</ele>
        <time>2016-01-12T10:36:43Z</time>
      </trkpt>
      <trkpt lat="48.5958" lon="1.96299">
        <ele>142.89</ele>
        <time>2016-01-12T10:36:51Z</time>
      </trkpt>
      <trkpt lat="48.59578" lon="1.96304">
        <ele>143.37</ele>
        <time>2016-01-12T10:36:54Z</time>
      </trkpt>
      <trkpt lat="48.5957" lon="1.9632">
        <ele>141.93</ele>
        <time>2016-01-12T10:37:03Z</time>
      </trkpt>
      <trkpt lat="48.59564" lon="1.96334">
        <ele>142.41</ele>
        <time>2016-01-12T10:37:11Z</time>
      </trkpt>
      <trkpt lat="48.59561" lon="1.96342">
        <ele>142.89</ele>
        <time>2016-01-12T10:37:18Z</time>
      </trkpt>
      <trkpt lat="48.59561" lon="1.9635">
        <ele>142.41</ele>
        <time>2016-01-12T10:37:27Z</time>
      </trkpt>
      <trkpt lat="48.59555" lon="1.96363">
        <ele>141.93</ele>
        <time>2016-01-12T10:37:34Z</time>
      </trkpt>
      <trkpt lat="48.59547" lon="1.96377">
        <ele>141.45</ele>
        <time>2016-01-12T10:37:43Z</time>
      </trkpt>
      <trkpt lat="48.59544" lon="1.96386">
        <ele>140.97</ele>
        <time>2016-01-12T10:37:49Z</time>
      </trkpt>
      <trkpt lat="48.59543" lon="1.9639">
        <ele>140.49</ele>
        <time>2016-01-12T10:37:51Z</time>
      </trkpt>
      <trkpt lat="48.59537" lon="1.96402">
        <ele>140.01</ele>
        <time>2016-01-12T10:38:00Z</time>
      </trkpt>
      <trkpt lat="48.59534" lon="1.96406">
        <ele>139.53</ele>
        <time>2016-01-12T10:38:07Z</time>
      </trkpt>
      <trkpt lat="48.59533" lon="1.96412">
        <ele>139.05</ele>
        <time>2016-01-12T10:38:16Z</time>
      </trkpt>
      <trkpt lat="48.59527" lon="1.96423">
        <ele>139.05</ele>
        <time>2016-01-12T10:38:22Z</time>
      </trkpt>
      <trkpt lat="48.5952" lon="1.96436">
        <ele>138.09</ele>
        <time>2016-01-12T10:38:31Z</time>
      </trkpt>
      <trkpt lat="48.59513" lon="1.96448">
        <ele>136.64</ele>
        <time>2016-01-12T10:38:39Z</time>
      </trkpt>
      <trkpt lat="48.59507" lon="1.9646">
        <ele>135.68</ele>
        <time>2016-01-12T10:38:47Z</time>
      </trkpt>
      <trkpt lat="48.59501" lon="1.96474">
        <ele>135.68</ele>
        <time>2016-01-12T10:38:55Z</time>
      </trkpt>
      <trkpt lat="48.59496" lon="1.96488">
        <ele>135.68</ele>
        <time>2016-01-12T10:39:03Z</time>
      </trkpt>
      <trkpt lat="48.59491" lon="1.96499">
        <ele>134.24</ele>
        <time>2016-01-12T10:39:10Z</time>
      </trkpt>
      <trkpt lat="48.59486" lon="1.9651">
        <ele>132.8</ele>
        <time>2016-01-12T10:39:16Z</time>
      </trkpt>
      <trkpt lat="48.59478" lon="1.96527">
        <ele>131.84</ele>
        <time>2016-01-12T10:39:26Z</time>
      </trkpt>
      <trkpt lat="48.5947" lon="1.96545">
        <ele>130.88</ele>
        <time>2016-01-12T10:39:37Z</time>
      </trkpt>
      <trkpt lat="48.59464" lon="1.9656">
        <ele>130.4</ele>
        <time>2016-01-12T10:39:44Z</time>
      </trkpt>
      <trkpt lat="48.59457" lon="1.96576">
        <ele>130.88</ele>
        <time>2016-01-12T10:39:53Z</time>
      </trkpt>
      <trkpt lat="48.5945" lon="1.96591">
        <ele>130.4</ele>
        <time>2016-01-12T10:40:02Z</time>
      </trkpt>
      <trkpt lat="48.59444" lon="1.96603">
        <ele>130.88</ele>
        <time>2016-01-12T10:40:10Z</time>
      </trkpt>
      <trkpt lat="48.59443" lon="1.96605">
        <ele>130.88</ele>
        <time>2016-01-12T10:40:17Z</time>
      </trkpt>
      <trkpt lat="48.59442" lon="1.96605">
        <ele>130.4</ele>
        <time>2016-01-12T10:40:31Z</time>
      </trkpt>
      <trkpt lat="48.59443" lon="1.96605">
        <ele>131.36</ele>
        <time>2016-01-12T10:40:47Z</time>
      </trkpt>
      <trkpt lat="48.59442" lon="1.96605">
        <ele>131.84</ele>
        <time>2016-01-12T10:40:51Z</time>
      </trkpt>
      <trkpt lat="48.5943" lon="1.96594">
        <ele>129.92</ele>
        <time>2016-01-12T10:41:00Z</time>
      </trkpt>
      <trkpt lat="48.59419" lon="1.96585">
        <ele>128.47</ele>
        <time>2016-01-12T10:41:08Z</time>
      </trkpt>
      <trkpt lat="48.59411" lon="1.96577">
        <ele>127.51</ele>
        <time>2016-01-12T10:41:15Z</time>
      </trkpt>
      <trkpt lat="48.59401" lon="1.96566">
        <ele>126.55</ele>
        <time>2016-01-12T10:41:23Z</time>
      </trkpt>
      <trkpt lat="48.59393" lon="1.96556">
        <ele>125.59</ele>
        <time>2016-01-12T10:41:32Z</time>
      </trkpt>
      <trkpt lat="48.5939" lon="1.96554">
        <ele>124.63</ele>
        <time>2016-01-12T10:41:34Z</time>
      </trkpt>
      <trkpt lat="48.59378" lon="1.96546">
        <ele>123.67</ele>
        <time>2016-01-12T10:41:43Z</time>
      </trkpt>
      <trkpt lat="48.59367" lon="1.96536">
        <ele>122.22</ele>
        <time>2016-01-12T10:41:52Z</time>
      </trkpt>
      <trkpt lat="48.59367" lon="1.96535">
        <ele>121.74</ele>
        <time>2016-01-12T10:41:53Z</time>
      </trkpt>
      <trkpt lat="48.59356" lon="1.96524">
        <ele>120.78</ele>
        <time>2016-01-12T10:42:03Z</time>
      </trkpt>
      <trkpt lat="48.59347" lon="1.96512">
        <ele>120.3</ele>
        <time>2016-01-12T10:42:10Z</time>
      </trkpt>
      <trkpt lat="48.5934" lon="1.96508">
        <ele>119.82</ele>
        <time>2016-01-12T10:42:14Z</time>
      </trkpt>
      <trkpt lat="48.59325" lon="1.96495">
        <ele>118.86</ele>
        <time>2016-01-12T10:42:25Z</time>
      </trkpt>
      <trkpt lat="48.5932" lon="1.96496">
        <ele>118.86</ele>
        <time>2016-01-12T10:42:31Z</time>
      </trkpt>
      <trkpt lat="48.59319" lon="1.96498">
        <ele>119.34</ele>
        <time>2016-01-12T10:42:33Z</time>
      </trkpt>
      <trkpt lat="48.59309" lon="1.96494">
        <ele>117.42</ele>
        <time>2016-01-12T10:42:42Z</time>
      </trkpt>
      <trkpt lat="48.593" lon="1.96489">
        <ele>116.46</ele>
        <time>2016-01-12T10:42:50Z</time>
      </trkpt>
      <trkpt lat="48.59295" lon="1.96485">
        <ele>115.98</ele>
        <time>2016-01-12T10:42:58Z</time>
      </trkpt>
      <trkpt lat="48.59284" lon="1.96485">
        <ele>114.53</ele>
        <time>2016-01-12T10:43:08Z</time>
      </trkpt>
      <trkpt lat="48.5927" lon="1.96488">
        <ele>113.09</ele>
        <time>2016-01-12T10:43:18Z</time>
      </trkpt>
      <trkpt lat="48.59261" lon="1.96497">
        <ele>111.65</ele>
        <time>2016-01-12T10:43:27Z</time>
      </trkpt>
      <trkpt lat="48.59253" lon="1.9651">
        <ele>110.69</ele>
        <time>2016-01-12T10:43:35Z</time>
      </trkpt>
      <trkpt lat="48.59246" lon="1.96523">
        <ele>109.73</ele>
        <time>2016-01-12T10:43:44Z</time>
      </trkpt>
      <trkpt lat="48.59236" lon="1.96534">
        <ele>108.77</ele>
        <time>2016-01-12T10:43:52Z</time>
      </trkpt>
      <trkpt lat="48.59222" lon="1.96541">
        <ele>107.32</ele>
        <time>2016-01-12T10:44:01Z</time>
      </trkpt>
      <trkpt lat="48.59215" lon="1.96549">
        <ele>106.84</ele>
        <time>2016-01-12T10:44:09Z</time>
      </trkpt>
      <trkpt lat="48.59208" lon="1.96558">
        <ele>105.88</ele>
        <time>2016-01-12T10:44:18Z</time>
      </trkpt>
      <trkpt lat="48.59203" lon="1.9657">
        <ele>106.36</ele>
        <time>2016-01-12T10:44:26Z</time>
      </trkpt>
      <trkpt lat="48.592" lon="1.96575">
        <ele>106.36</ele>
        <time>2016-01-12T10:44:30Z</time>
      </trkpt>
      <trkpt lat="48.59191" lon="1.96589">
        <ele>104.92</ele>
        <time>2016-01-12T10:44:40Z</time>
      </trkpt>
      <trkpt lat="48.59184" lon="1.96601">
        <ele>104.92</ele>
        <time>2016-01-12T10:44:49Z</time>
      </trkpt>
      <trkpt lat="48.5918" lon="1.96612">
        <ele>105.4</ele>
        <time>2016-01-12T10:44:58Z</time>
      </trkpt>
      <trkpt lat="48.5918" lon="1.96616">
        <ele>104.92</ele>
        <time>2016-01-12T10:45:06Z</time>
      </trkpt>
      <trkpt lat="48.5918" lon="1.96615">
        <ele>106.84</ele>
        <time>2016-01-12T10:45:12Z</time>
      </trkpt>
      <trkpt lat="48.5918" lon="1.96615">
        <ele>105.88</ele>
        <time>2016-01-12T10:45:21Z</time>
      </trkpt>
      <trkpt lat="48.5918" lon="1.96614">
        <ele>105.4</ele>
        <time>2016-01-12T10:45:29Z</time>
      </trkpt>
      <trkpt lat="48.59181" lon="1.96611">
        <ele>105.4</ele>
        <time>2016-01-12T10:45:40Z</time>
      </trkpt>
      <trkpt lat="48.59181" lon="1.96611">
        <ele>105.4</ele>
        <time>2016-01-12T10:45:51Z</time>
      </trkpt>
      <trkpt lat="48.59182" lon="1.96607">
        <ele>105.4</ele>
        <time>2016-01-12T10:46:01Z</time>
      </trkpt>
      <trkpt lat="48.59179" lon="1.9661">
        <ele>105.88</ele>
        <time>2016-01-12T10:46:07Z</time>
      </trkpt>
      <trkpt lat="48.59179" lon="1.9661">
        <ele>106.36</ele>
        <time>2016-01-12T10:46:17Z</time>
      </trkpt>
      <trkpt lat="48.59178" lon="1.9661">
        <ele>107.32</ele>
        <time>2016-01-12T10:46:27Z</time>
      </trkpt>
      <trkpt lat="48.59179" lon="1.9661">
        <ele>103.96</ele>
        <time>2016-01-12T10:46:32Z</time>
      </trkpt>
      <trkpt lat="48.59179" lon="1.9661">
        <ele>109.73</ele>
        <time>2016-01-12T10:46:33Z</time>
      </trkpt>
      <trkpt lat="48.59179" lon="1.9661">
        <ele>106.36</ele>
        <time>2016-01-12T10:46:34Z</time>
      </trkpt>
      <trkpt lat="48.59178" lon="1.9661">
        <ele>102.52</ele>
        <time>2016-01-12T10:46:45Z</time>
      </trkpt>
      <trkpt lat="48.59178" lon="1.9661">
        <ele>104.44</ele>
        <time>2016-01-12T10:46:46Z</time>
      </trkpt>
      <trkpt lat="48.59178" lon="1.9661">
        <ele>112.13</ele>
        <time>2016-01-12T10:46:47Z</time>
      </trkpt>
      <trkpt lat="48.59178" lon="1.9661">
        <ele>106.36</ele>
        <time>2016-01-12T10:46:48Z</time>
      </trkpt>
      <trkpt lat="48.59178" lon="1.9661">
        <ele>111.17</ele>
        <time>2016-01-12T10:46:52Z</time>
      </trkpt>
      <trkpt lat="48.59178" lon="1.9661">
        <ele>106.36</ele>
        <time>2016-01-12T10:46:53Z</time>
      </trkpt>
      <trkpt lat="48.59178" lon="1.96611">
        <ele>108.29</ele>
        <time>2016-01-12T10:47:05Z</time>
      </trkpt>
      <trkpt lat="48.59178" lon="1.96611">
        <ele>104.44</ele>
        <time>2016-01-12T10:47:12Z</time>
      </trkpt>
      <trkpt lat="48.59178" lon="1.96611">
        <ele>108.29</ele>
        <time>2016-01-12T10:47:13Z</time>
      </trkpt>
      <trkpt lat="48.59178" lon="1.9661">
        <ele>106.36</ele>
        <time>2016-01-12T10:47:19Z</time>
      </trkpt>
      <trkpt lat="48.59177" lon="1.96611">
        <ele>103.96</ele>
        <time>2016-01-12T10:47:25Z</time>
      </trkpt>
    </trkseg>
  </trk>
</gpx>